<?xml version="1.0" encoding="UTF-8" standalone="no" ?>
<gpx xmlns="http://www.topografix.com/GPX/1/1" xmlns:xsi="http://www.w3.org/2001/XMLSchema-instance" xsi:schemaLocation="http://www.topografix.com/GPX/1/1 http://www.topografix.com/GPX/1/1/gpx.xsd" version="1.1" creator="VisuGPX - https://www.visugpx.com">
  <metadata>
    <name>GR21</name>
  </metadata>
  <wpt lat="49.87376" lon="0.79876">
    <ele>15.3</ele>
    <name><![CDATA[Relais Hôtelier Douce France ]]></name>
    <desc><![CDATA[13 Rue Docteur Pierre Girard, 76980 Veules-les-Roses, France]]></desc>
    <type><![CDATA[r]]></type>
  </wpt>
  <wpt lat="49.85208" lon="0.59646">
    <ele>6.1</ele>
    <name><![CDATA[Hôtel des Bains]]></name>
    <desc><![CDATA[3 Rue de Greenock, 76450 Veulettes-sur-Mer, France]]></desc>
    <type><![CDATA[h]]></type>
  </wpt>
  <wpt lat="49.75939" lon="0.36246">
    <ele>11.8</ele>
    <name><![CDATA[Hôtel d'Angleterr]]></name>
    <desc><![CDATA[91-93 Rue de la Plage, 76400 Fécamp, France]]></desc>
    <type><![CDATA[h]]></type>
  </wpt>
  <trk>
    <name><![CDATA[GR21_1]]></name>
    <extensions>
      <line xmlns="http://www.topografix.com/GPX/gpx_style/0/2">
        <color>0000FF</color>
        <width>4</width>
      </line>
    </extensions>
    <trkseg>
      <trkpt lat="49.90557" lon="1.01094">
        <ele>95.642</ele>
        <time>2015-11-26T20:00:39Z</time>
      </trkpt>
      <trkpt lat="49.90591" lon="1.01027">
        <ele>93.468</ele>
        <time>2015-11-26T20:00:19Z</time>
      </trkpt>
      <trkpt lat="49.90634" lon="1.01006">
        <ele>92.814</ele>
        <time>2015-11-26T19:59:59Z</time>
      </trkpt>
      <trkpt lat="49.90679" lon="1.01022">
        <ele>94.76</ele>
        <time>2015-11-26T19:59:39Z</time>
      </trkpt>
      <trkpt lat="49.90763" lon="1.01096">
        <ele>95.799</ele>
        <time>2015-11-26T19:59:19Z</time>
      </trkpt>
      <trkpt lat="49.90876" lon="1.01238">
        <ele>85.518</ele>
        <time>2015-11-26T19:58:59Z</time>
      </trkpt>
      <trkpt lat="49.90939" lon="1.01288">
        <ele>82.311</ele>
        <time>2015-11-26T19:58:39Z</time>
      </trkpt>
      <trkpt lat="49.91058" lon="1.01358">
        <ele>80.292</ele>
        <time>2015-11-26T19:58:19Z</time>
      </trkpt>
      <trkpt lat="49.91067" lon="1.0127">
        <ele>76.384</ele>
        <time>2015-11-26T19:57:59Z</time>
      </trkpt>
      <trkpt lat="49.91139" lon="1.01197">
        <ele>76.079</ele>
        <time>2015-11-26T19:57:39Z</time>
      </trkpt>
      <trkpt lat="49.91341" lon="1.00896">
        <ele>49.908</ele>
        <time>2015-11-26T19:57:19Z</time>
      </trkpt>
      <trkpt lat="49.91349" lon="1.00808">
        <ele>44.413</ele>
        <time>2015-11-26T19:56:59Z</time>
      </trkpt>
      <trkpt lat="49.91509" lon="1.00815">
        <ele>35.049</ele>
        <time>2015-11-26T19:56:39Z</time>
      </trkpt>
      <trkpt lat="49.9163" lon="1.00769">
        <ele>19.737</ele>
        <time>2015-11-26T19:56:19Z</time>
      </trkpt>
      <trkpt lat="49.9162" lon="1.0074">
        <ele>23.433</ele>
        <time>2015-11-26T19:55:59Z</time>
      </trkpt>
      <trkpt lat="49.91593" lon="1.00731">
        <ele>28.069</ele>
        <time>2015-11-26T19:55:39Z</time>
      </trkpt>
      <trkpt lat="49.9155" lon="1.00708">
        <ele>32.678</ele>
        <time>2015-11-26T19:55:19Z</time>
      </trkpt>
      <trkpt lat="49.91506" lon="1.00594">
        <ele>40.967</ele>
        <time>2015-11-26T19:54:59Z</time>
      </trkpt>
      <trkpt lat="49.9151" lon="1.00545">
        <ele>43.92</ele>
        <time>2015-11-26T19:54:39Z</time>
      </trkpt>
      <trkpt lat="49.91506" lon="1.00499">
        <ele>49.391</ele>
        <time>2015-11-26T19:54:19Z</time>
      </trkpt>
      <trkpt lat="49.91518" lon="1.00246">
        <ele>77.553</ele>
        <time>2015-11-26T19:53:59Z</time>
      </trkpt>
      <trkpt lat="49.91496" lon="1.00173">
        <ele>79.598</ele>
        <time>2015-11-26T19:53:39Z</time>
      </trkpt>
      <trkpt lat="49.91492" lon="1.00104">
        <ele>84.008</ele>
        <time>2015-11-26T19:53:19Z</time>
      </trkpt>
      <trkpt lat="49.91436" lon="0.99943">
        <ele>91.814</ele>
        <time>2015-11-26T19:52:59Z</time>
      </trkpt>
      <trkpt lat="49.91418" lon="0.99795">
        <ele>90.604</ele>
        <time>2015-11-26T19:52:39Z</time>
      </trkpt>
      <trkpt lat="49.91577" lon="0.99829">
        <ele>90.424</ele>
        <time>2015-11-26T19:52:19Z</time>
      </trkpt>
      <trkpt lat="49.91611" lon="0.9979">
        <ele>88.437</ele>
        <time>2015-11-26T19:51:59Z</time>
      </trkpt>
      <trkpt lat="49.91624" lon="0.99745">
        <ele>86.193</ele>
        <time>2015-11-26T19:51:39Z</time>
      </trkpt>
      <trkpt lat="49.91619" lon="0.9963">
        <ele>87.032</ele>
        <time>2015-11-26T19:51:19Z</time>
      </trkpt>
      <trkpt lat="49.91589" lon="0.99574">
        <ele>91.111</ele>
        <time>2015-11-26T19:50:59Z</time>
      </trkpt>
      <trkpt lat="49.91376" lon="0.99564">
        <ele>93.854</ele>
        <time>2015-11-26T19:50:39Z</time>
      </trkpt>
      <trkpt lat="49.9134" lon="0.99585">
        <ele>93.945</ele>
        <time>2015-11-26T19:50:19Z</time>
      </trkpt>
      <trkpt lat="49.9129" lon="0.99455">
        <ele>91.237</ele>
        <time>2015-11-26T19:49:59Z</time>
      </trkpt>
      <trkpt lat="49.91265" lon="0.99417">
        <ele>88.582</ele>
        <time>2015-11-26T19:49:39Z</time>
      </trkpt>
      <trkpt lat="49.91229" lon="0.9939">
        <ele>85.608</ele>
        <time>2015-11-26T19:49:19Z</time>
      </trkpt>
      <trkpt lat="49.91165" lon="0.99325">
        <ele>80.711</ele>
        <time>2015-11-26T19:48:59Z</time>
      </trkpt>
      <trkpt lat="49.91202" lon="0.99326">
        <ele>81.583</ele>
        <time>2015-11-26T19:48:39Z</time>
      </trkpt>
      <trkpt lat="49.91286" lon="0.99272">
        <ele>80.062</ele>
        <time>2015-11-26T19:48:19Z</time>
      </trkpt>
      <trkpt lat="49.91353" lon="0.99185">
        <ele>77.936</ele>
        <time>2015-11-26T19:47:59Z</time>
      </trkpt>
      <trkpt lat="49.91422" lon="0.99036">
        <ele>69.012</ele>
        <time>2015-11-26T19:47:39Z</time>
      </trkpt>
      <trkpt lat="49.9146" lon="0.98848">
        <ele>55.581</ele>
        <time>2015-11-26T19:47:19Z</time>
      </trkpt>
      <trkpt lat="49.91419" lon="0.98708">
        <ele>74.46</ele>
        <time>2015-11-26T19:46:59Z</time>
      </trkpt>
      <trkpt lat="49.91409" lon="0.9864">
        <ele>77.243</ele>
        <time>2015-11-26T19:46:39Z</time>
      </trkpt>
      <trkpt lat="49.91456" lon="0.98655">
        <ele>71.844</ele>
        <time>2015-11-26T19:46:19Z</time>
      </trkpt>
      <trkpt lat="49.91512" lon="0.98665">
        <ele>63.196</ele>
        <time>2015-11-26T19:45:59Z</time>
      </trkpt>
      <trkpt lat="49.9152" lon="0.98637">
        <ele>61.361</ele>
        <time>2015-11-26T19:45:39Z</time>
      </trkpt>
      <trkpt lat="49.91508" lon="0.98553">
        <ele>57.108</ele>
        <time>2015-11-26T19:45:19Z</time>
      </trkpt>
      <trkpt lat="49.91639" lon="0.98652">
        <ele>37.008</ele>
        <time>2015-11-26T19:44:59Z</time>
      </trkpt>
      <trkpt lat="49.91674" lon="0.98661">
        <ele>34.653</ele>
        <time>2015-11-26T19:44:39Z</time>
      </trkpt>
      <trkpt lat="49.91688" lon="0.98651">
        <ele>32.352</ele>
        <time>2015-11-26T19:44:19Z</time>
      </trkpt>
      <trkpt lat="49.91692" lon="0.98608">
        <ele>35.345</ele>
        <time>2015-11-26T19:43:59Z</time>
      </trkpt>
      <trkpt lat="49.91674" lon="0.98588">
        <ele>37.941</ele>
        <time>2015-11-26T19:43:39Z</time>
      </trkpt>
      <trkpt lat="49.91623" lon="0.9847">
        <ele>56.34</ele>
        <time>2015-11-26T19:43:19Z</time>
      </trkpt>
      <trkpt lat="49.91603" lon="0.98353">
        <ele>67.469</ele>
        <time>2015-11-26T19:42:59Z</time>
      </trkpt>
      <trkpt lat="49.9158" lon="0.98203">
        <ele>82.772</ele>
        <time>2015-11-26T19:42:39Z</time>
      </trkpt>
      <trkpt lat="49.91494" lon="0.9814">
        <ele>83.043</ele>
        <time>2015-11-26T19:42:19Z</time>
      </trkpt>
      <trkpt lat="49.9141" lon="0.98144">
        <ele>85.925</ele>
        <time>2015-11-26T19:41:59Z</time>
      </trkpt>
      <trkpt lat="49.91326" lon="0.98117">
        <ele>85.78</ele>
        <time>2015-11-26T19:41:39Z</time>
      </trkpt>
      <trkpt lat="49.91326" lon="0.98026">
        <ele>84.308</ele>
        <time>2015-11-26T19:41:19Z</time>
      </trkpt>
      <trkpt lat="49.91316" lon="0.97967">
        <ele>85.822</ele>
        <time>2015-11-26T19:40:59Z</time>
      </trkpt>
      <trkpt lat="49.91322" lon="0.97828">
        <ele>85.402</ele>
        <time>2015-11-26T19:40:39Z</time>
      </trkpt>
      <trkpt lat="49.91389" lon="0.97817">
        <ele>84.049</ele>
        <time>2015-11-26T19:40:19Z</time>
      </trkpt>
      <trkpt lat="49.91452" lon="0.97613">
        <ele>74.54</ele>
        <time>2015-11-26T19:39:59Z</time>
      </trkpt>
      <trkpt lat="49.91476" lon="0.97554">
        <ele>68.716</ele>
        <time>2015-11-26T19:39:39Z</time>
      </trkpt>
      <trkpt lat="49.91513" lon="0.97496">
        <ele>64.975</ele>
        <time>2015-11-26T19:39:19Z</time>
      </trkpt>
      <trkpt lat="49.91554" lon="0.97468">
        <ele>64.164</ele>
        <time>2015-11-26T19:38:59Z</time>
      </trkpt>
      <trkpt lat="49.91612" lon="0.97447">
        <ele>56.857</ele>
        <time>2015-11-26T19:38:39Z</time>
      </trkpt>
      <trkpt lat="49.91678" lon="0.97446">
        <ele>49.948</ele>
        <time>2015-11-26T19:38:19Z</time>
      </trkpt>
      <trkpt lat="49.91657" lon="0.97244">
        <ele>56.07</ele>
        <time>2015-11-26T19:37:59Z</time>
      </trkpt>
      <trkpt lat="49.91661" lon="0.97159">
        <ele>53.485</ele>
        <time>2015-11-26T19:37:39Z</time>
      </trkpt>
      <trkpt lat="49.91677" lon="0.97137">
        <ele>50.508</ele>
        <time>2015-11-26T19:37:19Z</time>
      </trkpt>
      <trkpt lat="49.91724" lon="0.97117">
        <ele>47.524</ele>
        <time>2015-11-26T19:36:59Z</time>
      </trkpt>
      <trkpt lat="49.91747" lon="0.97122">
        <ele>46.331</ele>
        <time>2015-11-26T19:36:39Z</time>
      </trkpt>
      <trkpt lat="49.91762" lon="0.97064">
        <ele>48.396</ele>
        <time>2015-11-26T19:36:19Z</time>
      </trkpt>
      <trkpt lat="49.91774" lon="0.96978">
        <ele>55.365</ele>
        <time>2015-11-26T19:35:59Z</time>
      </trkpt>
      <trkpt lat="49.91759" lon="0.96899">
        <ele>62.351</ele>
        <time>2015-11-26T19:35:39Z</time>
      </trkpt>
      <trkpt lat="49.91695" lon="0.96791">
        <ele>64.18</ele>
        <time>2015-11-26T19:35:19Z</time>
      </trkpt>
      <trkpt lat="49.91666" lon="0.96717">
        <ele>70.699</ele>
        <time>2015-11-26T19:34:59Z</time>
      </trkpt>
      <trkpt lat="49.91749" lon="0.96682">
        <ele>77.822</ele>
        <time>2015-11-26T19:34:39Z</time>
      </trkpt>
      <trkpt lat="49.91769" lon="0.96658">
        <ele>79.653</ele>
        <time>2015-11-26T19:34:19Z</time>
      </trkpt>
      <trkpt lat="49.91773" lon="0.96625">
        <ele>81.965</ele>
        <time>2015-11-26T19:33:59Z</time>
      </trkpt>
      <trkpt lat="49.91719" lon="0.96441">
        <ele>84.14</ele>
        <time>2015-11-26T19:33:39Z</time>
      </trkpt>
      <trkpt lat="49.91676" lon="0.9639">
        <ele>85.708</ele>
        <time>2015-11-26T19:33:19Z</time>
      </trkpt>
      <trkpt lat="49.91624" lon="0.96025">
        <ele>83.021</ele>
        <time>2015-11-26T19:32:59Z</time>
      </trkpt>
      <trkpt lat="49.91478" lon="0.961">
        <ele>85.729</ele>
        <time>2015-11-26T19:32:39Z</time>
      </trkpt>
      <trkpt lat="49.91565" lon="0.95912">
        <ele>84.247</ele>
        <time>2015-11-26T19:32:19Z</time>
      </trkpt>
      <trkpt lat="49.91543" lon="0.95878">
        <ele>84.547</ele>
        <time>2015-11-26T19:31:59Z</time>
      </trkpt>
      <trkpt lat="49.91524" lon="0.95919">
        <ele>85.793</ele>
        <time>2015-11-26T19:31:39Z</time>
      </trkpt>
      <trkpt lat="49.91507" lon="0.95931">
        <ele>84.932</ele>
        <time>2015-11-26T19:31:19Z</time>
      </trkpt>
      <trkpt lat="49.91486" lon="0.95932">
        <ele>83.641</ele>
        <time>2015-11-26T19:30:59Z</time>
      </trkpt>
      <trkpt lat="49.91447" lon="0.95882">
        <ele>79.964</ele>
        <time>2015-11-26T19:30:39Z</time>
      </trkpt>
      <trkpt lat="49.91407" lon="0.95899">
        <ele>78.185</ele>
        <time>2015-11-26T19:30:19Z</time>
      </trkpt>
      <trkpt lat="49.91377" lon="0.95848">
        <ele>77.697</ele>
        <time>2015-11-26T19:29:59Z</time>
      </trkpt>
      <trkpt lat="49.91367" lon="0.95851">
        <ele>78.512</ele>
        <time>2015-11-26T19:29:39Z</time>
      </trkpt>
      <trkpt lat="49.91356" lon="0.95836">
        <ele>79.308</ele>
        <time>2015-11-26T19:29:19Z</time>
      </trkpt>
      <trkpt lat="49.91335" lon="0.95867">
        <ele>81.119</ele>
        <time>2015-11-26T19:28:59Z</time>
      </trkpt>
      <trkpt lat="49.91311" lon="0.9588">
        <ele>83.681</ele>
        <time>2015-11-26T19:28:39Z</time>
      </trkpt>
      <trkpt lat="49.91302" lon="0.95904">
        <ele>84.867</ele>
        <time>2015-11-26T19:28:19Z</time>
      </trkpt>
      <trkpt lat="49.91279" lon="0.9592">
        <ele>86.079</ele>
        <time>2015-11-26T19:27:59Z</time>
      </trkpt>
      <trkpt lat="49.91255" lon="0.959">
        <ele>87.385</ele>
        <time>2015-11-26T19:27:39Z</time>
      </trkpt>
      <trkpt lat="49.91252" lon="0.95901">
        <ele>87.464</ele>
        <time>2015-11-26T19:27:19Z</time>
      </trkpt>
      <trkpt lat="49.91229" lon="0.95895">
        <ele>87.273</ele>
        <time>2015-11-26T19:26:59Z</time>
      </trkpt>
      <trkpt lat="49.91217" lon="0.95879">
        <ele>86.786</ele>
        <time>2015-11-26T19:26:39Z</time>
      </trkpt>
      <trkpt lat="49.91173" lon="0.95858">
        <ele>87.877</ele>
        <time>2015-11-26T19:26:19Z</time>
      </trkpt>
      <trkpt lat="49.91058" lon="0.95696">
        <ele>88.119</ele>
        <time>2015-11-26T19:25:59Z</time>
      </trkpt>
      <trkpt lat="49.90949" lon="0.9556">
        <ele>85.194</ele>
        <time>2015-11-26T19:25:39Z</time>
      </trkpt>
      <trkpt lat="49.90914" lon="0.95286">
        <ele>83.008</ele>
        <time>2015-11-26T19:25:19Z</time>
      </trkpt>
      <trkpt lat="49.9091" lon="0.94697">
        <ele>48.117</ele>
        <time>2015-11-26T19:24:59Z</time>
      </trkpt>
      <trkpt lat="49.90931" lon="0.94685">
        <ele>46.889</ele>
        <time>2015-11-26T19:24:39Z</time>
      </trkpt>
      <trkpt lat="49.90915" lon="0.94623">
        <ele>45.585</ele>
        <time>2015-11-26T19:24:19Z</time>
      </trkpt>
      <trkpt lat="49.90863" lon="0.94506">
        <ele>40.472</ele>
        <time>2015-11-26T19:23:59Z</time>
      </trkpt>
      <trkpt lat="49.90842" lon="0.94446">
        <ele>40.168</ele>
        <time>2015-11-26T19:23:39Z</time>
      </trkpt>
      <trkpt lat="49.90847" lon="0.9436">
        <ele>44.017</ele>
        <time>2015-11-26T19:23:19Z</time>
      </trkpt>
      <trkpt lat="49.9077" lon="0.93833">
        <ele>24.826</ele>
        <time>2015-11-26T19:22:59Z</time>
      </trkpt>
      <trkpt lat="49.9082" lon="0.93666">
        <ele>13.579</ele>
        <time>2015-11-26T19:22:39Z</time>
      </trkpt>
      <trkpt lat="49.90746" lon="0.9333">
        <ele>4.98</ele>
        <time>2015-11-26T19:22:19Z</time>
      </trkpt>
      <trkpt lat="49.90672" lon="0.9306">
        <ele>2.722</ele>
        <time>2015-11-26T19:21:59Z</time>
      </trkpt>
      <trkpt lat="49.90479" lon="0.92448">
        <ele>4.647</ele>
        <time>2015-11-26T19:21:39Z</time>
      </trkpt>
      <trkpt lat="49.90463" lon="0.92383">
        <ele>7.308</ele>
        <time>2015-11-26T19:21:19Z</time>
      </trkpt>
      <trkpt lat="49.90455" lon="0.92321">
        <ele>7.717</ele>
        <time>2015-11-26T19:20:59Z</time>
      </trkpt>
      <trkpt lat="49.90429" lon="0.92296">
        <ele>11.798</ele>
        <time>2015-11-26T19:20:39Z</time>
      </trkpt>
      <trkpt lat="49.90368" lon="0.92211">
        <ele>19.818</ele>
        <time>2015-11-26T19:20:19Z</time>
      </trkpt>
      <trkpt lat="49.90339" lon="0.92187">
        <ele>24.526</ele>
        <time>2015-11-26T19:19:59Z</time>
      </trkpt>
      <trkpt lat="49.90288" lon="0.92149">
        <ele>30.982</ele>
        <time>2015-11-26T19:19:39Z</time>
      </trkpt>
      <trkpt lat="49.90236" lon="0.92086">
        <ele>34.411</ele>
        <time>2015-11-26T19:19:19Z</time>
      </trkpt>
      <trkpt lat="49.90179" lon="0.92008">
        <ele>41.85</ele>
        <time>2015-11-26T19:18:59Z</time>
      </trkpt>
      <trkpt lat="49.90175" lon="0.91963">
        <ele>46.733</ele>
        <time>2015-11-26T19:18:39Z</time>
      </trkpt>
      <trkpt lat="49.901" lon="0.91867">
        <ele>54.984</ele>
        <time>2015-11-26T19:18:19Z</time>
      </trkpt>
      <trkpt lat="49.90088" lon="0.9182">
        <ele>54.226</ele>
        <time>2015-11-26T19:17:59Z</time>
      </trkpt>
      <trkpt lat="49.90002" lon="0.91723">
        <ele>49.951</ele>
        <time>2015-11-26T19:17:39Z</time>
      </trkpt>
      <trkpt lat="49.89904" lon="0.91504">
        <ele>40.408</ele>
        <time>2020-12-10T18:48:38Z</time>
      </trkpt>
      <trkpt lat="49.89881" lon="0.91474">
        <ele>40.717</ele>
        <time>2020-12-10T18:48:18Z</time>
      </trkpt>
      <trkpt lat="49.89964" lon="0.9137">
        <ele>37.707</ele>
        <time>2020-12-10T18:47:58Z</time>
      </trkpt>
      <trkpt lat="49.90056" lon="0.91343">
        <ele>34.155</ele>
        <time>2020-12-10T18:47:38Z</time>
      </trkpt>
      <trkpt lat="49.89618" lon="0.90464">
        <ele>39.117</ele>
        <time>2020-12-10T18:47:18Z</time>
      </trkpt>
      <trkpt lat="49.89424" lon="0.90728">
        <ele>41.063</ele>
        <time>2015-11-26T19:14:39Z</time>
      </trkpt>
      <trkpt lat="49.88713" lon="0.89827">
        <ele>26.832</ele>
        <time>2015-11-26T19:14:19Z</time>
      </trkpt>
      <trkpt lat="49.88668" lon="0.89814">
        <ele>25.371</ele>
        <time>2015-11-26T19:13:59Z</time>
      </trkpt>
      <trkpt lat="49.8862" lon="0.89776">
        <ele>25.434</ele>
        <time>2015-11-26T19:13:39Z</time>
      </trkpt>
      <trkpt lat="49.88568" lon="0.89716">
        <ele>23.555</ele>
        <time>2015-11-26T19:13:19Z</time>
      </trkpt>
      <trkpt lat="49.88511" lon="0.8962">
        <ele>17.927</ele>
        <time>2015-11-26T19:12:59Z</time>
      </trkpt>
      <trkpt lat="49.88472" lon="0.8953">
        <ele>15.922</ele>
        <time>2015-11-26T19:12:39Z</time>
      </trkpt>
      <trkpt lat="49.88548" lon="0.89502">
        <ele>28.108</ele>
        <time>2015-11-26T19:12:19Z</time>
      </trkpt>
      <trkpt lat="49.88905" lon="0.89011">
        <ele>31.019</ele>
        <time>2015-11-26T19:11:59Z</time>
      </trkpt>
      <trkpt lat="49.88993" lon="0.88949">
        <ele>26.581</ele>
        <time>2015-11-26T19:11:39Z</time>
      </trkpt>
      <trkpt lat="49.89029" lon="0.8894">
        <ele>26.567</ele>
        <time>2015-11-26T19:11:19Z</time>
      </trkpt>
      <trkpt lat="49.89056" lon="0.88908">
        <ele>23.037</ele>
        <time>2015-11-26T19:10:59Z</time>
      </trkpt>
      <trkpt lat="49.89068" lon="0.88861">
        <ele>19.363</ele>
        <time>2015-11-26T19:10:39Z</time>
      </trkpt>
      <trkpt lat="49.89056" lon="0.88822">
        <ele>18.022</ele>
        <time>2015-11-26T19:10:19Z</time>
      </trkpt>
      <trkpt lat="49.89025" lon="0.88773">
        <ele>17.821</ele>
        <time>2015-11-26T19:09:59Z</time>
      </trkpt>
      <trkpt lat="49.88759" lon="0.88524">
        <ele>9.614</ele>
        <time>2015-11-26T19:09:39Z</time>
      </trkpt>
      <trkpt lat="49.88688" lon="0.88442">
        <ele>14.335</ele>
        <time>2015-11-26T19:09:19Z</time>
      </trkpt>
      <trkpt lat="49.88677" lon="0.88384">
        <ele>16.877</ele>
        <time>2015-11-26T19:08:59Z</time>
      </trkpt>
      <trkpt lat="49.88735" lon="0.88161">
        <ele>17.722</ele>
        <time>2015-11-26T19:08:39Z</time>
      </trkpt>
      <trkpt lat="49.88772" lon="0.8801">
        <ele>18.108</ele>
        <time>2015-11-26T19:08:19Z</time>
      </trkpt>
      <trkpt lat="49.88792" lon="0.87846">
        <ele>14.419</ele>
        <time>2015-11-26T19:07:59Z</time>
      </trkpt>
      <trkpt lat="49.88904" lon="0.87546">
        <ele>16.881</ele>
        <time>2015-11-26T19:07:39Z</time>
      </trkpt>
      <trkpt lat="49.88976" lon="0.87448">
        <ele>17.967</ele>
        <time>2015-11-26T19:07:19Z</time>
      </trkpt>
      <trkpt lat="49.89035" lon="0.87348">
        <ele>16.818</ele>
        <time>2015-11-26T19:06:59Z</time>
      </trkpt>
      <trkpt lat="49.89265" lon="0.87186">
        <ele>6.564</ele>
        <time>2015-11-26T19:06:39Z</time>
      </trkpt>
      <trkpt lat="49.89227" lon="0.87102">
        <ele>13.253</ele>
        <time>2015-11-26T19:06:19Z</time>
      </trkpt>
      <trkpt lat="49.89071" lon="0.86882">
        <ele>25.692</ele>
        <time>2015-11-26T19:05:59Z</time>
      </trkpt>
      <trkpt lat="49.89121" lon="0.86651">
        <ele>27.215</ele>
        <time>2015-11-26T19:05:39Z</time>
      </trkpt>
      <trkpt lat="49.89166" lon="0.86542">
        <ele>26.026</ele>
        <time>2015-11-26T19:05:19Z</time>
      </trkpt>
      <trkpt lat="49.89202" lon="0.86308">
        <ele>12.218</ele>
        <time>2015-11-26T19:04:59Z</time>
      </trkpt>
      <trkpt lat="49.89233" lon="0.86168">
        <ele>8.273</ele>
        <time>2020-12-10T18:36:58Z</time>
      </trkpt>
      <trkpt lat="49.88582" lon="0.85365">
        <ele>22.108</ele>
        <time>2020-12-10T18:36:38Z</time>
      </trkpt>
      <trkpt lat="49.88371" lon="0.85316">
        <ele>22.526</ele>
        <time>2020-12-10T18:36:18Z</time>
      </trkpt>
      <trkpt lat="49.88335" lon="0.85198">
        <ele>26.833</ele>
        <time>2020-12-10T18:35:58Z</time>
      </trkpt>
      <trkpt lat="49.88338" lon="0.84998">
        <ele>36.078</ele>
        <time>2020-12-10T18:35:38Z</time>
      </trkpt>
      <trkpt lat="49.88245" lon="0.84985">
        <ele>34.379</ele>
        <time>2020-12-10T18:35:18Z</time>
      </trkpt>
      <trkpt lat="49.87861" lon="0.84867">
        <ele>36.075</ele>
        <time>2020-12-10T18:34:58Z</time>
      </trkpt>
      <trkpt lat="49.87802" lon="0.84837">
        <ele>37.394</ele>
        <time>2020-12-10T18:34:38Z</time>
      </trkpt>
      <trkpt lat="49.87848" lon="0.84563">
        <ele>44.423</ele>
        <time>2020-12-10T18:34:18Z</time>
      </trkpt>
      <trkpt lat="49.87896" lon="0.84112">
        <ele>40.066</ele>
        <time>2020-12-10T18:33:58Z</time>
      </trkpt>
      <trkpt lat="49.87912" lon="0.83917">
        <ele>36.967</ele>
        <time>2020-12-10T18:33:38Z</time>
      </trkpt>
      <trkpt lat="49.87935" lon="0.83794">
        <ele>37.749</ele>
        <time>2020-12-10T18:33:18Z</time>
      </trkpt>
      <trkpt lat="49.88003" lon="0.83488">
        <ele>41.144</ele>
        <time>2020-12-10T18:32:58Z</time>
      </trkpt>
      <trkpt lat="49.88024" lon="0.83481">
        <ele>41.208</ele>
        <time>2020-12-10T18:32:38Z</time>
      </trkpt>
      <trkpt lat="49.88162" lon="0.83365">
        <ele>41.617</ele>
        <time>2020-12-10T18:32:18Z</time>
      </trkpt>
      <trkpt lat="49.88192" lon="0.83378">
        <ele>41.589</ele>
        <time>2020-12-10T18:31:58Z</time>
      </trkpt>
      <trkpt lat="49.88199" lon="0.83314">
        <ele>42.185</ele>
        <time>2020-12-10T18:31:38Z</time>
      </trkpt>
      <trkpt lat="49.88356" lon="0.83153">
        <ele>46.94</ele>
        <time>2020-12-10T18:31:18Z</time>
      </trkpt>
      <trkpt lat="49.88477" lon="0.83149">
        <ele>50.056</ele>
        <time>2020-12-10T18:30:58Z</time>
      </trkpt>
      <trkpt lat="49.88582" lon="0.83131">
        <ele>47.985</ele>
        <time>2020-12-10T18:30:38Z</time>
      </trkpt>
      <trkpt lat="49.88711" lon="0.83056">
        <ele>45.814</ele>
        <time>2020-12-10T18:30:18Z</time>
      </trkpt>
      <trkpt lat="49.88705" lon="0.82977">
        <ele>45.897</ele>
        <time>2015-11-26T18:54:19Z</time>
      </trkpt>
      <trkpt lat="49.88702" lon="0.82901">
        <ele>44.288</ele>
        <time>2020-12-10T18:29:38Z</time>
      </trkpt>
      <trkpt lat="49.88628" lon="0.82614">
        <ele>32.57</ele>
        <time>2020-12-10T18:29:18Z</time>
      </trkpt>
      <trkpt lat="49.88583" lon="0.82504">
        <ele>37.085</ele>
        <time>2020-12-10T18:28:58Z</time>
      </trkpt>
      <trkpt lat="49.88517" lon="0.8239">
        <ele>34.108</ele>
        <time>2020-12-10T18:28:38Z</time>
      </trkpt>
      <trkpt lat="49.88393" lon="0.82473">
        <ele>41.119</ele>
        <time>2020-12-10T18:28:18Z</time>
      </trkpt>
      <trkpt lat="49.88278" lon="0.82569">
        <ele>42.881</ele>
        <time>2020-12-10T18:27:58Z</time>
      </trkpt>
      <trkpt lat="49.88201" lon="0.82657">
        <ele>43.591</ele>
        <time>2020-12-10T18:27:38Z</time>
      </trkpt>
      <trkpt lat="49.88189" lon="0.82737">
        <ele>43.796</ele>
        <time>2020-12-10T18:27:18Z</time>
      </trkpt>
      <trkpt lat="49.88171" lon="0.82793">
        <ele>44.032</ele>
        <time>2015-11-26T18:51:59Z</time>
      </trkpt>
      <trkpt lat="49.88131" lon="0.82806">
        <ele>45.291</ele>
        <time>2020-12-10T18:26:38Z</time>
      </trkpt>
      <trkpt lat="49.87994" lon="0.82813">
        <ele>47.29</ele>
        <time>2020-12-10T18:26:18Z</time>
      </trkpt>
      <trkpt lat="49.87916" lon="0.82809">
        <ele>47.313</ele>
        <time>2020-12-10T18:25:58Z</time>
      </trkpt>
      <trkpt lat="49.87921" lon="0.82604">
        <ele>46.264</ele>
        <time>2020-12-10T18:25:38Z</time>
      </trkpt>
      <trkpt lat="49.87899" lon="0.82387">
        <ele>45.126</ele>
        <time>2020-12-10T18:25:18Z</time>
      </trkpt>
      <trkpt lat="49.87828" lon="0.82334">
        <ele>46.221</ele>
        <time>2015-11-26T18:50:59Z</time>
      </trkpt>
      <trkpt lat="49.87697" lon="0.82215">
        <ele>47.708</ele>
        <time>2015-11-26T18:50:39Z</time>
      </trkpt>
      <trkpt lat="49.87598" lon="0.8215">
        <ele>50.023</ele>
        <time>2015-11-26T18:50:19Z</time>
      </trkpt>
      <trkpt lat="49.87537" lon="0.8206">
        <ele>52.803</ele>
        <time>2015-11-26T18:49:59Z</time>
      </trkpt>
      <trkpt lat="49.87343" lon="0.81795">
        <ele>57.359</ele>
        <time>2015-11-26T18:49:39Z</time>
      </trkpt>
      <trkpt lat="49.87235" lon="0.8167">
        <ele>62.124</ele>
        <time>2015-11-26T18:49:19Z</time>
      </trkpt>
      <trkpt lat="49.87165" lon="0.81586">
        <ele>63.09</ele>
        <time>2015-11-26T18:48:59Z</time>
      </trkpt>
      <trkpt lat="49.87112" lon="0.81509">
        <ele>64.049</ele>
        <time>2015-11-26T18:48:39Z</time>
      </trkpt>
      <trkpt lat="49.87046" lon="0.81398">
        <ele>62.218</ele>
        <time>2015-11-26T18:48:19Z</time>
      </trkpt>
      <trkpt lat="49.87" lon="0.81313">
        <ele>59.061</ele>
        <time>2015-11-26T18:47:59Z</time>
      </trkpt>
      <trkpt lat="49.8693" lon="0.81141">
        <ele>53.072</ele>
        <time>2015-11-26T18:47:39Z</time>
      </trkpt>
      <trkpt lat="49.86978" lon="0.81116">
        <ele>56.044</ele>
        <time>2015-11-26T18:47:19Z</time>
      </trkpt>
      <trkpt lat="49.87043" lon="0.81052">
        <ele>56.939</ele>
        <time>2015-11-26T18:46:59Z</time>
      </trkpt>
      <trkpt lat="49.87125" lon="0.80953">
        <ele>56.808</ele>
        <time>2015-11-26T18:46:39Z</time>
      </trkpt>
      <trkpt lat="49.87219" lon="0.80818">
        <ele>57.107</ele>
        <time>2015-11-26T18:46:19Z</time>
      </trkpt>
      <trkpt lat="49.87282" lon="0.80714">
        <ele>56.061</ele>
        <time>2015-11-26T18:45:59Z</time>
      </trkpt>
      <trkpt lat="49.87231" lon="0.80571">
        <ele>56.131</ele>
        <time>2015-11-26T18:45:39Z</time>
      </trkpt>
      <trkpt lat="49.87204" lon="0.80493">
        <ele>57.637</ele>
        <time>2015-11-26T18:45:19Z</time>
      </trkpt>
      <trkpt lat="49.87166" lon="0.80408">
        <ele>53.623</ele>
        <time>2015-11-26T18:44:59Z</time>
      </trkpt>
      <trkpt lat="49.8715" lon="0.80371">
        <ele>51.872</ele>
        <time>2015-11-26T18:44:39Z</time>
      </trkpt>
      <trkpt lat="49.87133" lon="0.80298">
        <ele>42.391</ele>
        <time>2015-11-26T18:44:19Z</time>
      </trkpt>
      <trkpt lat="49.87116" lon="0.80232">
        <ele>26.834</ele>
        <time>2015-11-26T18:43:59Z</time>
      </trkpt>
      <trkpt lat="49.87099" lon="0.80241">
        <ele>24.225</ele>
        <time>2015-11-26T18:43:39Z</time>
      </trkpt>
      <trkpt lat="49.87084" lon="0.80268">
        <ele>24.637</ele>
        <time>2015-11-26T18:43:19Z</time>
      </trkpt>
      <trkpt lat="49.87048" lon="0.80245">
        <ele>19.462</ele>
        <time>2015-11-26T18:42:59Z</time>
      </trkpt>
      <trkpt lat="49.87037" lon="0.80242">
        <ele>19.008</ele>
        <time>2015-11-26T18:42:39Z</time>
      </trkpt>
      <trkpt lat="49.87029" lon="0.80222">
        <ele>18.011</ele>
        <time>2015-11-26T18:42:19Z</time>
      </trkpt>
      <trkpt lat="49.87002" lon="0.80192">
        <ele>19.083</ele>
        <time>2015-11-26T18:41:59Z</time>
      </trkpt>
      <trkpt lat="49.87042" lon="0.80129">
        <ele>17.562</ele>
        <time>2015-11-26T18:41:39Z</time>
      </trkpt>
      <trkpt lat="49.87069" lon="0.80078">
        <ele>17.028</ele>
        <time>2015-11-26T18:41:19Z</time>
      </trkpt>
      <trkpt lat="49.87082" lon="0.80067">
        <ele>17.054</ele>
        <time>2015-11-26T18:40:59Z</time>
      </trkpt>
      <trkpt lat="49.8711" lon="0.80092">
        <ele>15.163</ele>
        <time>2015-11-26T18:40:39Z</time>
      </trkpt>
      <trkpt lat="49.87162" lon="0.80119">
        <ele>18.692</ele>
        <time>2015-11-26T18:40:19Z</time>
      </trkpt>
      <trkpt lat="49.87207" lon="0.80124">
        <ele>25.375</ele>
        <time>2015-11-26T18:39:59Z</time>
      </trkpt>
      <trkpt lat="49.87269" lon="0.80113">
        <ele>26.136</ele>
        <time>2015-11-26T18:39:39Z</time>
      </trkpt>
      <trkpt lat="49.87295" lon="0.80099">
        <ele>25.088</ele>
        <time>2015-11-26T18:39:19Z</time>
      </trkpt>
      <trkpt lat="49.87319" lon="0.8007">
        <ele>23.683</ele>
        <time>2015-11-26T18:38:59Z</time>
      </trkpt>
      <trkpt lat="49.87372" lon="0.80001">
        <ele>19.208</ele>
        <time>2015-11-26T18:38:39Z</time>
      </trkpt>
      <trkpt lat="49.87391" lon="0.79982">
        <ele>18.825</ele>
        <time>2015-11-26T18:38:19Z</time>
      </trkpt>
      <trkpt lat="49.87408" lon="0.79959">
        <ele>18.705</ele>
        <time>2015-11-26T18:37:59Z</time>
      </trkpt>
      <trkpt lat="49.87432" lon="0.79918">
        <ele>17.279</ele>
        <time>2015-11-26T18:37:39Z</time>
      </trkpt>
      <trkpt lat="49.87458" lon="0.79895">
        <ele>18.454</ele>
        <time>2015-11-26T18:37:19Z</time>
      </trkpt>
      <trkpt lat="49.87472" lon="0.79899">
        <ele>21.16</ele>
        <time>2015-11-26T18:36:59Z</time>
      </trkpt>
      <trkpt lat="49.87498" lon="0.79888">
        <ele>21.889</ele>
        <time>2015-11-26T18:36:39Z</time>
      </trkpt>
      <trkpt lat="49.87538" lon="0.79889">
        <ele>20.278</ele>
        <time>2015-11-26T18:36:19Z</time>
      </trkpt>
      <trkpt lat="49.87603" lon="0.79907">
        <ele>16.131</ele>
        <time>2015-11-26T18:35:59Z</time>
      </trkpt>
      <trkpt lat="49.87635" lon="0.79952">
        <ele>18.342</ele>
        <time>2020-12-10T18:09:38Z</time>
      </trkpt>
      <trkpt lat="49.87645" lon="0.79885">
        <ele>11.344</ele>
        <time>2020-12-10T18:09:18Z</time>
      </trkpt>
      <trkpt lat="49.87669" lon="0.79876">
        <ele>8.999</ele>
        <time>2020-12-10T18:08:58Z</time>
      </trkpt>
      <trkpt lat="49.87722" lon="0.79909">
        <ele>6.708</ele>
        <time>2020-12-10T18:08:38Z</time>
      </trkpt>
      <trkpt lat="49.87701" lon="0.79814">
        <ele>6.117</ele>
        <time>2020-12-10T18:08:18Z</time>
      </trkpt>
      <trkpt lat="49.87683" lon="0.79779">
        <ele>8.67</ele>
        <time>2020-12-10T18:07:58Z</time>
      </trkpt>
      <trkpt lat="49.87672" lon="0.79771">
        <ele>8.938</ele>
        <time>2015-11-26T18:33:59Z</time>
      </trkpt>
      <trkpt lat="49.87679" lon="0.79749">
        <ele>9.164</ele>
        <time>2015-11-26T18:33:39Z</time>
      </trkpt>
      <trkpt lat="49.87691" lon="0.79737">
        <ele>8.41</ele>
        <time>2015-11-26T18:33:19Z</time>
      </trkpt>
      <trkpt lat="49.87695" lon="0.79727">
        <ele>8.039</ele>
        <time>2015-11-26T18:32:59Z</time>
      </trkpt>
      <trkpt lat="49.87685" lon="0.79718">
        <ele>9.398</ele>
        <time>2015-11-26T18:32:39Z</time>
      </trkpt>
      <trkpt lat="49.87679" lon="0.7971">
        <ele>10.461</ele>
        <time>2015-11-26T18:32:19Z</time>
      </trkpt>
      <trkpt lat="49.87658" lon="0.79698">
        <ele>13.392</ele>
        <time>2015-11-26T18:31:59Z</time>
      </trkpt>
      <trkpt lat="49.87653" lon="0.79653">
        <ele>20.264</ele>
        <time>2015-11-26T18:31:39Z</time>
      </trkpt>
      <trkpt lat="49.87655" lon="0.79621">
        <ele>16.799</ele>
        <time>2015-11-26T18:31:19Z</time>
      </trkpt>
      <trkpt lat="49.87652" lon="0.79601">
        <ele>20.808</ele>
        <time>2015-11-26T18:30:59Z</time>
      </trkpt>
      <trkpt lat="49.87651" lon="0.79578">
        <ele>28.911</ele>
        <time>2015-11-26T18:30:39Z</time>
      </trkpt>
      <trkpt lat="49.87648" lon="0.79557">
        <ele>30.992</ele>
        <time>2015-11-26T18:30:19Z</time>
      </trkpt>
      <trkpt lat="49.87635" lon="0.79537">
        <ele>37.032</ele>
        <time>2015-11-26T18:29:59Z</time>
      </trkpt>
      <trkpt lat="49.87624" lon="0.79504">
        <ele>40.946</ele>
        <time>2015-11-26T18:29:39Z</time>
      </trkpt>
      <trkpt lat="49.87619" lon="0.79475">
        <ele>43.262</ele>
        <time>2015-11-26T18:29:19Z</time>
      </trkpt>
      <trkpt lat="49.87613" lon="0.79445">
        <ele>43.771</ele>
        <time>2015-11-26T18:28:59Z</time>
      </trkpt>
      <trkpt lat="49.876" lon="0.79427">
        <ele>44.66</ele>
        <time>2015-11-26T18:28:39Z</time>
      </trkpt>
      <trkpt lat="49.87588" lon="0.79425">
        <ele>44.743</ele>
        <time>2015-11-26T18:28:19Z</time>
      </trkpt>
      <trkpt lat="49.87577" lon="0.79415">
        <ele>44.644</ele>
        <time>2015-11-26T18:27:59Z</time>
      </trkpt>
      <trkpt lat="49.87499" lon="0.79442">
        <ele>41.196</ele>
        <time>2015-11-26T18:27:39Z</time>
      </trkpt>
      <trkpt lat="49.87491" lon="0.79436">
        <ele>41.261</ele>
        <time>2015-11-26T18:27:19Z</time>
      </trkpt>
      <trkpt lat="49.87479" lon="0.79152">
        <ele>50.608</ele>
        <time>2015-11-26T18:26:59Z</time>
      </trkpt>
      <trkpt lat="49.87467" lon="0.79105">
        <ele>50.02</ele>
        <time>2015-11-26T18:26:39Z</time>
      </trkpt>
      <trkpt lat="49.87384" lon="0.79052">
        <ele>50.8</ele>
        <time>2015-11-26T18:26:19Z</time>
      </trkpt>
      <trkpt lat="49.87413" lon="0.78878">
        <ele>55.057</ele>
        <time>2015-11-26T18:25:59Z</time>
      </trkpt>
      <trkpt lat="49.87394" lon="0.78689">
        <ele>57.019</ele>
        <time>2015-11-26T18:24:39Z</time>
      </trkpt>
      <trkpt lat="49.87308" lon="0.78421">
        <ele>60.985</ele>
        <time>2015-11-26T18:24:19Z</time>
      </trkpt>
      <trkpt lat="49.872" lon="0.77989">
        <ele>60.094</ele>
        <time>2015-11-26T18:23:59Z</time>
      </trkpt>
      <trkpt lat="49.87177" lon="0.77798">
        <ele>58.413</ele>
        <time>2015-11-26T18:23:39Z</time>
      </trkpt>
      <trkpt lat="49.87085" lon="0.7735">
        <ele>58.166</ele>
        <time>2015-11-26T18:23:19Z</time>
      </trkpt>
      <trkpt lat="49.86614" lon="0.77715">
        <ele>69.087</ele>
        <time>2015-11-26T18:22:59Z</time>
      </trkpt>
      <trkpt lat="49.86406" lon="0.771">
        <ele>70.019</ele>
        <time>2015-11-26T18:22:39Z</time>
      </trkpt>
      <trkpt lat="49.86303" lon="0.76839">
        <ele>74.854</ele>
        <time>2015-11-26T18:22:19Z</time>
      </trkpt>
      <trkpt lat="49.8622" lon="0.76692">
        <ele>74.008</ele>
        <time>2015-11-26T18:21:59Z</time>
      </trkpt>
      <trkpt lat="49.86135" lon="0.76587">
        <ele>73.326</ele>
        <time>2015-11-26T18:21:39Z</time>
      </trkpt>
      <trkpt lat="49.85907" lon="0.76345">
        <ele>76.724</ele>
        <time>2015-11-26T18:21:19Z</time>
      </trkpt>
      <trkpt lat="49.85827" lon="0.76289">
        <ele>76.088</ele>
        <time>2015-11-26T18:20:59Z</time>
      </trkpt>
      <trkpt lat="49.85626" lon="0.76107">
        <ele>81.867</ele>
        <time>2015-11-26T18:20:39Z</time>
      </trkpt>
      <trkpt lat="49.85525" lon="0.75973">
        <ele>78.083</ele>
        <time>2015-11-26T18:20:19Z</time>
      </trkpt>
      <trkpt lat="49.85482" lon="0.75851">
        <ele>74.652</ele>
        <time>2015-11-26T18:19:59Z</time>
      </trkpt>
      <trkpt lat="49.8546" lon="0.7586">
        <ele>74.541</ele>
        <time>2015-11-26T18:19:39Z</time>
      </trkpt>
      <trkpt lat="49.85426" lon="0.75855">
        <ele>73.294</ele>
        <time>2015-11-26T18:19:19Z</time>
      </trkpt>
      <trkpt lat="49.85425" lon="0.75827">
        <ele>72.435</ele>
        <time>2015-11-26T18:18:59Z</time>
      </trkpt>
      <trkpt lat="49.85405" lon="0.75737">
        <ele>69.967</ele>
        <time>2015-11-26T18:18:39Z</time>
      </trkpt>
      <trkpt lat="49.85375" lon="0.75639">
        <ele>67.012</ele>
        <time>2015-11-26T18:18:19Z</time>
      </trkpt>
      <trkpt lat="49.85421" lon="0.75563">
        <ele>67.808</ele>
        <time>2015-11-26T18:17:59Z</time>
      </trkpt>
      <trkpt lat="49.85452" lon="0.75536">
        <ele>67.824</ele>
        <time>2015-11-26T18:17:39Z</time>
      </trkpt>
      <trkpt lat="49.85514" lon="0.75701">
        <ele>72.204</ele>
        <time>2015-11-26T18:17:19Z</time>
      </trkpt>
      <trkpt lat="49.85585" lon="0.75719">
        <ele>75.869</ele>
        <time>2015-11-26T18:16:59Z</time>
      </trkpt>
      <trkpt lat="49.85727" lon="0.75786">
        <ele>76.913</ele>
        <time>2015-11-26T18:16:39Z</time>
      </trkpt>
      <trkpt lat="49.85768" lon="0.75509">
        <ele>69.069</ele>
        <time>2015-11-26T18:16:19Z</time>
      </trkpt>
      <trkpt lat="49.86" lon="0.75422">
        <ele>73.078</ele>
        <time>2015-11-26T18:15:59Z</time>
      </trkpt>
      <trkpt lat="49.86172" lon="0.75474">
        <ele>77.167</ele>
        <time>2015-11-26T18:15:39Z</time>
      </trkpt>
      <trkpt lat="49.86271" lon="0.75495">
        <ele>77.21</ele>
        <time>2015-11-26T18:15:19Z</time>
      </trkpt>
      <trkpt lat="49.86376" lon="0.75482">
        <ele>79.031</ele>
        <time>2015-11-26T18:14:59Z</time>
      </trkpt>
      <trkpt lat="49.86536" lon="0.75442">
        <ele>76.673</ele>
        <time>2015-11-26T18:14:39Z</time>
      </trkpt>
      <trkpt lat="49.86571" lon="0.75409">
        <ele>74.468</ele>
        <time>2015-11-26T18:14:19Z</time>
      </trkpt>
      <trkpt lat="49.86756" lon="0.75363">
        <ele>68.808</ele>
        <time>2015-11-26T18:13:59Z</time>
      </trkpt>
      <trkpt lat="49.86881" lon="0.75353">
        <ele>66.02</ele>
        <time>2015-11-26T18:13:39Z</time>
      </trkpt>
      <trkpt lat="49.86897" lon="0.75349">
        <ele>65.9</ele>
        <time>2015-11-26T18:13:19Z</time>
      </trkpt>
      <trkpt lat="49.86895" lon="0.75288">
        <ele>64.929</ele>
        <time>2015-11-26T18:12:59Z</time>
      </trkpt>
      <trkpt lat="49.86905" lon="0.74951">
        <ele>62.478</ele>
        <time>2015-11-26T18:12:39Z</time>
      </trkpt>
      <trkpt lat="49.86891" lon="0.74691">
        <ele>66.174</ele>
        <time>2015-11-26T18:12:19Z</time>
      </trkpt>
      <trkpt lat="49.86891" lon="0.74636">
        <ele>67.983</ele>
        <time>2015-11-26T18:11:59Z</time>
      </trkpt>
      <trkpt lat="49.86897" lon="0.74584">
        <ele>67.792</ele>
        <time>2015-11-26T18:11:39Z</time>
      </trkpt>
      <trkpt lat="49.86901" lon="0.74489">
        <ele>65.965</ele>
        <time>2015-11-26T18:11:19Z</time>
      </trkpt>
      <trkpt lat="49.86904" lon="0.74178">
        <ele>68.376</ele>
        <time>2015-11-26T18:10:59Z</time>
      </trkpt>
      <trkpt lat="49.86899" lon="0.74084">
        <ele>68.388</ele>
        <time>2015-11-26T18:10:39Z</time>
      </trkpt>
      <trkpt lat="49.86879" lon="0.73887">
        <ele>65.753</ele>
        <time>2015-11-26T18:10:19Z</time>
      </trkpt>
      <trkpt lat="49.86848" lon="0.73689">
        <ele>67.408</ele>
        <time>2015-11-26T18:09:59Z</time>
      </trkpt>
      <trkpt lat="49.86819" lon="0.73578">
        <ele>69.021</ele>
        <time>2015-11-26T18:09:39Z</time>
      </trkpt>
      <trkpt lat="49.86782" lon="0.73389">
        <ele>67.056</ele>
        <time>2015-11-26T18:09:19Z</time>
      </trkpt>
      <trkpt lat="49.86758" lon="0.73259">
        <ele>68.574</ele>
        <time>2015-11-26T18:08:59Z</time>
      </trkpt>
      <trkpt lat="49.86734" lon="0.73174">
        <ele>67.652</ele>
        <time>2015-11-26T18:08:39Z</time>
      </trkpt>
      <trkpt lat="49.86703" lon="0.7311">
        <ele>65.378</ele>
        <time>2015-11-26T18:08:19Z</time>
      </trkpt>
      <trkpt lat="49.86679" lon="0.73084">
        <ele>64.087</ele>
        <time>2015-11-26T18:07:59Z</time>
      </trkpt>
      <trkpt lat="49.867" lon="0.7298">
        <ele>65.796</ele>
        <time>2015-11-26T18:07:39Z</time>
      </trkpt>
      <trkpt lat="49.86712" lon="0.72902">
        <ele>66.549</ele>
        <time>2015-11-26T18:07:19Z</time>
      </trkpt>
      <trkpt lat="49.86712" lon="0.72859">
        <ele>66.03</ele>
        <time>2015-11-26T18:06:59Z</time>
      </trkpt>
      <trkpt lat="49.86669" lon="0.72714">
        <ele>65.932</ele>
        <time>2015-11-26T18:06:39Z</time>
      </trkpt>
      <trkpt lat="49.86652" lon="0.72581">
        <ele>69.517</ele>
        <time>2015-11-26T18:06:19Z</time>
      </trkpt>
      <trkpt lat="49.86675" lon="0.72442">
        <ele>65.008</ele>
        <time>2015-11-26T18:05:59Z</time>
      </trkpt>
      <trkpt lat="49.86623" lon="0.72176">
        <ele>65.719</ele>
        <time>2015-11-26T18:05:39Z</time>
      </trkpt>
      <trkpt lat="49.8661" lon="0.72012">
        <ele>62.009</ele>
        <time>2015-11-26T18:05:19Z</time>
      </trkpt>
      <trkpt lat="49.86603" lon="0.71942">
        <ele>61.719</ele>
        <time>2015-11-26T18:04:59Z</time>
      </trkpt>
      <trkpt lat="49.86618" lon="0.71919">
        <ele>62.55</ele>
        <time>2015-11-26T18:04:39Z</time>
      </trkpt>
      <trkpt lat="49.86655" lon="0.7175">
        <ele>57.436</ele>
        <time>2015-11-26T18:04:19Z</time>
      </trkpt>
      <trkpt lat="49.86696" lon="0.71636">
        <ele>49.085</ele>
        <time>2015-11-26T18:03:59Z</time>
      </trkpt>
      <trkpt lat="49.86705" lon="0.71605">
        <ele>48.724</ele>
        <time>2015-11-26T18:03:39Z</time>
      </trkpt>
      <trkpt lat="49.86731" lon="0.71595">
        <ele>45.677</ele>
        <time>2015-11-26T18:03:19Z</time>
      </trkpt>
      <trkpt lat="49.86875" lon="0.71725">
        <ele>45.058</ele>
        <time>2015-11-26T18:02:59Z</time>
      </trkpt>
      <trkpt lat="49.86895" lon="0.71724">
        <ele>42.01</ele>
        <time>2015-11-26T18:02:39Z</time>
      </trkpt>
      <trkpt lat="49.86909" lon="0.717">
        <ele>33.455</ele>
        <time>2015-11-26T18:02:19Z</time>
      </trkpt>
      <trkpt lat="49.86905" lon="0.71695">
        <ele>33.808</ele>
        <time>2015-11-26T18:01:59Z</time>
      </trkpt>
      <trkpt lat="49.86908" lon="0.71647">
        <ele>21.827</ele>
        <time>2015-11-26T18:01:39Z</time>
      </trkpt>
      <trkpt lat="49.86913" lon="0.71632">
        <ele>18.107</ele>
        <time>2015-11-26T18:01:19Z</time>
      </trkpt>
      <trkpt lat="49.86921" lon="0.7163">
        <ele>15.899</ele>
        <time>2015-11-26T18:00:59Z</time>
      </trkpt>
      <trkpt lat="49.86926" lon="0.71595">
        <ele>12.332</ele>
        <time>2015-11-26T18:00:39Z</time>
      </trkpt>
      <trkpt lat="49.86927" lon="0.71577">
        <ele>11.888</ele>
        <time>2015-11-26T18:00:19Z</time>
      </trkpt>
      <trkpt lat="49.86939" lon="0.71536">
        <ele>10.267</ele>
        <time>2015-11-26T17:59:59Z</time>
      </trkpt>
      <trkpt lat="49.86945" lon="0.71539">
        <ele>10.066</ele>
        <time>2015-11-26T17:59:39Z</time>
      </trkpt>
      <trkpt lat="49.86937" lon="0.71625">
        <ele>11.759</ele>
        <time>2015-11-26T17:59:19Z</time>
      </trkpt>
      <trkpt lat="49.86967" lon="0.71635">
        <ele>7.74</ele>
        <time>2015-11-26T17:58:59Z</time>
      </trkpt>
      <trkpt lat="49.86965" lon="0.71682">
        <ele>12.952</ele>
        <time>2020-12-10T17:33:18Z</time>
      </trkpt>
      <trkpt lat="49.86979" lon="0.71726">
        <ele>12.317</ele>
        <time>2020-12-10T17:32:58Z</time>
      </trkpt>
      <trkpt lat="49.86998" lon="0.71724">
        <ele>6.008</ele>
        <time>2020-12-10T17:32:38Z</time>
      </trkpt>
      <trkpt lat="49.87003" lon="0.71605">
        <ele>5.509</ele>
        <time>2020-12-10T17:32:18Z</time>
      </trkpt>
      <trkpt lat="49.87025" lon="0.71479">
        <ele>7.054</ele>
        <time>2020-12-10T17:31:58Z</time>
      </trkpt>
      <trkpt lat="49.87076" lon="0.71316">
        <ele>2.314</ele>
        <time>2020-12-10T17:31:38Z</time>
      </trkpt>
      <trkpt lat="49.87044" lon="0.71279">
        <ele>7.093</ele>
        <time>2015-11-26T17:58:39Z</time>
      </trkpt>
      <trkpt lat="49.87037" lon="0.7126">
        <ele>6.419</ele>
        <time>2015-11-26T17:58:19Z</time>
      </trkpt>
      <trkpt lat="49.8694" lon="0.7124">
        <ele>5.838</ele>
        <time>2015-11-26T17:57:59Z</time>
      </trkpt>
      <trkpt lat="49.86888" lon="0.71178">
        <ele>5.997</ele>
        <time>2015-11-26T17:57:39Z</time>
      </trkpt>
      <trkpt lat="49.8685" lon="0.71152">
        <ele>5.23</ele>
        <time>2015-11-26T17:57:19Z</time>
      </trkpt>
      <trkpt lat="49.86862" lon="0.71072">
        <ele>4.441</ele>
        <time>2015-11-26T17:56:59Z</time>
      </trkpt>
      <trkpt lat="49.86935" lon="0.71085">
        <ele>3.613</ele>
        <time>2015-11-26T17:56:39Z</time>
      </trkpt>
      <trkpt lat="49.86968" lon="0.71153">
        <ele>2.378</ele>
        <time>2015-11-26T17:56:19Z</time>
      </trkpt>
      <trkpt lat="49.86977" lon="0.71175">
        <ele>5.308</ele>
        <time>2020-12-10T17:28:38Z</time>
      </trkpt>
      <trkpt lat="49.87034" lon="0.71165">
        <ele>6.614</ele>
        <time>2020-12-10T17:28:18Z</time>
      </trkpt>
      <trkpt lat="49.87059" lon="0.71128">
        <ele>11.304</ele>
        <time>2020-12-10T17:27:58Z</time>
      </trkpt>
      <trkpt lat="49.87066" lon="0.71104">
        <ele>14.424</ele>
        <time>2020-12-10T17:27:38Z</time>
      </trkpt>
      <trkpt lat="49.87076" lon="0.7108">
        <ele>18.236</ele>
        <time>2020-12-10T17:27:18Z</time>
      </trkpt>
      <trkpt lat="49.87059" lon="0.71039">
        <ele>23.752</ele>
        <time>2020-12-10T17:26:58Z</time>
      </trkpt>
      <trkpt lat="49.8703" lon="0.70997">
        <ele>26.911</ele>
        <time>2020-12-10T17:26:38Z</time>
      </trkpt>
      <trkpt lat="49.87036" lon="0.70968">
        <ele>29.92</ele>
        <time>2020-12-10T17:26:18Z</time>
      </trkpt>
      <trkpt lat="49.87037" lon="0.70913">
        <ele>34.323</ele>
        <time>2020-12-10T17:25:58Z</time>
      </trkpt>
      <trkpt lat="49.86991" lon="0.70628">
        <ele>44.254</ele>
        <time>2020-12-10T17:25:38Z</time>
      </trkpt>
      <trkpt lat="49.86954" lon="0.70453">
        <ele>50.846</ele>
        <time>2020-12-10T17:25:18Z</time>
      </trkpt>
      <trkpt lat="49.87009" lon="0.70438">
        <ele>54.821</ele>
        <time>2015-11-26T17:51:19Z</time>
      </trkpt>
      <trkpt lat="49.8698" lon="0.70199">
        <ele>58.408</ele>
        <time>2015-11-26T17:50:59Z</time>
      </trkpt>
      <trkpt lat="49.86959" lon="0.69843">
        <ele>59.208</ele>
        <time>2015-11-26T17:50:39Z</time>
      </trkpt>
      <trkpt lat="49.86911" lon="0.69581">
        <ele>53.653</ele>
        <time>2015-11-26T17:50:19Z</time>
      </trkpt>
      <trkpt lat="49.86896" lon="0.69516">
        <ele>52.152</ele>
        <time>2015-11-26T17:49:59Z</time>
      </trkpt>
      <trkpt lat="49.86818" lon="0.6933">
        <ele>59.148</ele>
        <time>2015-11-26T17:49:39Z</time>
      </trkpt>
      <trkpt lat="49.86708" lon="0.69092">
        <ele>56.914</ele>
        <time>2015-11-26T17:49:19Z</time>
      </trkpt>
      <trkpt lat="49.86679" lon="0.68955">
        <ele>57.383</ele>
        <time>2015-11-26T17:48:59Z</time>
      </trkpt>
      <trkpt lat="49.86648" lon="0.68807">
        <ele>56.332</ele>
        <time>2015-11-26T17:48:39Z</time>
      </trkpt>
      <trkpt lat="49.86627" lon="0.68526">
        <ele>58.685</ele>
        <time>2015-11-26T17:48:19Z</time>
      </trkpt>
      <trkpt lat="49.86589" lon="0.6822">
        <ele>58.256</ele>
        <time>2015-11-26T17:47:59Z</time>
      </trkpt>
      <trkpt lat="49.8658" lon="0.68114">
        <ele>59.148</ele>
        <time>2015-11-26T17:47:39Z</time>
      </trkpt>
      <trkpt lat="49.86554" lon="0.67976">
        <ele>61.013</ele>
        <time>2015-11-26T17:47:19Z</time>
      </trkpt>
      <trkpt lat="49.86505" lon="0.67735">
        <ele>64.408</ele>
        <time>2015-11-26T17:46:59Z</time>
      </trkpt>
      <trkpt lat="49.86402" lon="0.67292">
        <ele>69.019</ele>
        <time>2015-11-26T17:46:39Z</time>
      </trkpt>
      <trkpt lat="49.86318" lon="0.66791">
        <ele>70.89</ele>
        <time>2015-11-26T17:46:19Z</time>
      </trkpt>
      <trkpt lat="49.86304" lon="0.66665">
        <ele>69.176</ele>
        <time>2015-11-26T17:45:59Z</time>
      </trkpt>
      <trkpt lat="49.86292" lon="0.66341">
        <ele>72.948</ele>
        <time>2015-11-26T17:45:39Z</time>
      </trkpt>
      <trkpt lat="49.86285" lon="0.65987">
        <ele>70.224</ele>
        <time>2015-11-26T17:45:19Z</time>
      </trkpt>
      <trkpt lat="49.86256" lon="0.65813">
        <ele>70.053</ele>
        <time>2015-11-26T17:44:59Z</time>
      </trkpt>
      <trkpt lat="49.86253" lon="0.65752">
        <ele>70.012</ele>
        <time>2015-11-26T17:44:39Z</time>
      </trkpt>
      <trkpt lat="49.86223" lon="0.6559">
        <ele>69.055</ele>
        <time>2015-11-26T17:44:19Z</time>
      </trkpt>
      <trkpt lat="49.86203" lon="0.6557">
        <ele>68.836</ele>
        <time>2015-11-26T17:43:59Z</time>
      </trkpt>
      <trkpt lat="49.86162" lon="0.65384">
        <ele>68.078</ele>
        <time>2015-11-26T17:43:39Z</time>
      </trkpt>
      <trkpt lat="49.86124" lon="0.65252">
        <ele>66.163</ele>
        <time>2015-11-26T17:43:19Z</time>
      </trkpt>
      <trkpt lat="49.86105" lon="0.65167">
        <ele>66.008</ele>
        <time>2015-11-26T17:42:59Z</time>
      </trkpt>
      <trkpt lat="49.8602" lon="0.64882">
        <ele>64.521</ele>
        <time>2015-11-26T17:42:39Z</time>
      </trkpt>
      <trkpt lat="49.85797" lon="0.65086">
        <ele>64.056</ele>
        <time>2015-11-26T17:42:19Z</time>
      </trkpt>
      <trkpt lat="49.85577" lon="0.65299">
        <ele>68.574</ele>
        <time>2015-11-26T17:41:59Z</time>
      </trkpt>
      <trkpt lat="49.85457" lon="0.64958">
        <ele>66.058</ele>
        <time>2015-11-26T17:41:39Z</time>
      </trkpt>
      <trkpt lat="49.8544" lon="0.64928">
        <ele>64.984</ele>
        <time>2020-12-10T17:14:58Z</time>
      </trkpt>
      <trkpt lat="49.8527" lon="0.65062">
        <ele>68.733</ele>
        <time>2020-12-10T17:14:38Z</time>
      </trkpt>
      <trkpt lat="49.85113" lon="0.65169">
        <ele>70.082</ele>
        <time>2020-12-10T17:14:18Z</time>
      </trkpt>
      <trkpt lat="49.84852" lon="0.65326">
        <ele>73.435</ele>
        <time>2020-12-10T17:13:58Z</time>
      </trkpt>
      <trkpt lat="49.84628" lon="0.65484">
        <ele>71.146</ele>
        <time>2020-12-10T17:13:38Z</time>
      </trkpt>
      <trkpt lat="49.84446" lon="0.65353">
        <ele>72.898</ele>
        <time>2020-12-10T17:13:18Z</time>
      </trkpt>
      <trkpt lat="49.84453" lon="0.65291">
        <ele>72.963</ele>
        <time>2020-12-10T17:12:58Z</time>
      </trkpt>
      <trkpt lat="49.84462" lon="0.6496">
        <ele>75.508</ele>
        <time>2020-12-10T17:12:38Z</time>
      </trkpt>
      <trkpt lat="49.84477" lon="0.64935">
        <ele>75.819</ele>
        <time>2020-12-10T17:12:18Z</time>
      </trkpt>
      <trkpt lat="49.84396" lon="0.64726">
        <ele>76.49</ele>
        <time>2020-12-10T17:11:58Z</time>
      </trkpt>
      <trkpt lat="49.84368" lon="0.6469">
        <ele>76.676</ele>
        <time>2020-12-10T17:11:38Z</time>
      </trkpt>
      <trkpt lat="49.84186" lon="0.64567">
        <ele>74.356</ele>
        <time>2020-12-10T17:11:18Z</time>
      </trkpt>
      <trkpt lat="49.84036" lon="0.64495">
        <ele>74.042</ele>
        <time>2020-12-10T17:10:58Z</time>
      </trkpt>
      <trkpt lat="49.83932" lon="0.64255">
        <ele>73.171</ele>
        <time>2020-12-10T17:10:38Z</time>
      </trkpt>
      <trkpt lat="49.83852" lon="0.6407">
        <ele>73.71</ele>
        <time>2020-12-10T17:10:18Z</time>
      </trkpt>
      <trkpt lat="49.83794" lon="0.63954">
        <ele>75.313</ele>
        <time>2020-12-10T17:09:58Z</time>
      </trkpt>
      <trkpt lat="49.83666" lon="0.6371">
        <ele>78.654</ele>
        <time>2020-12-10T17:09:38Z</time>
      </trkpt>
      <trkpt lat="49.83636" lon="0.63663">
        <ele>77.036</ele>
        <time>2020-12-10T17:09:18Z</time>
      </trkpt>
      <trkpt lat="49.83577" lon="0.63642">
        <ele>77.521</ele>
        <time>2020-12-10T17:08:58Z</time>
      </trkpt>
      <trkpt lat="49.83527" lon="0.63653">
        <ele>76.508</ele>
        <time>2020-12-10T17:08:38Z</time>
      </trkpt>
      <trkpt lat="49.83515" lon="0.63619">
        <ele>76.917</ele>
        <time>2020-12-10T17:08:18Z</time>
      </trkpt>
      <trkpt lat="49.83467" lon="0.63543">
        <ele>75.907</ele>
        <time>2020-12-10T17:07:58Z</time>
      </trkpt>
      <trkpt lat="49.8354" lon="0.63444">
        <ele>74.655</ele>
        <time>2020-12-10T17:07:38Z</time>
      </trkpt>
      <trkpt lat="49.83609" lon="0.63453">
        <ele>75.542</ele>
        <time>2020-12-10T17:07:18Z</time>
      </trkpt>
      <trkpt lat="49.83673" lon="0.63425">
        <ele>75.048</ele>
        <time>2020-12-10T17:06:58Z</time>
      </trkpt>
      <trkpt lat="49.83742" lon="0.63361">
        <ele>74.357</ele>
        <time>2020-12-10T17:06:38Z</time>
      </trkpt>
      <trkpt lat="49.83789" lon="0.63464">
        <ele>75.616</ele>
        <time>2020-12-10T17:06:18Z</time>
      </trkpt>
      <trkpt lat="49.83966" lon="0.63252">
        <ele>74.079</ele>
        <time>2020-12-10T17:05:58Z</time>
      </trkpt>
      <trkpt lat="49.84117" lon="0.63087">
        <ele>73.04</ele>
        <time>2020-12-10T17:05:38Z</time>
      </trkpt>
      <trkpt lat="49.84218" lon="0.62957">
        <ele>72.772</ele>
        <time>2020-12-10T17:05:18Z</time>
      </trkpt>
      <trkpt lat="49.84349" lon="0.62798">
        <ele>70.487</ele>
        <time>2020-12-10T17:04:58Z</time>
      </trkpt>
      <trkpt lat="49.844" lon="0.62722">
        <ele>66.608</ele>
        <time>2020-12-10T17:04:38Z</time>
      </trkpt>
      <trkpt lat="49.84439" lon="0.62709">
        <ele>67.107</ele>
        <time>2020-12-10T17:04:18Z</time>
      </trkpt>
      <trkpt lat="49.84476" lon="0.62669">
        <ele>67.343</ele>
        <time>2020-12-10T17:03:58Z</time>
      </trkpt>
      <trkpt lat="49.8453" lon="0.62612">
        <ele>71.013</ele>
        <time>2020-12-10T17:03:38Z</time>
      </trkpt>
      <trkpt lat="49.84601" lon="0.62564">
        <ele>72.384</ele>
        <time>2020-12-10T17:03:18Z</time>
      </trkpt>
      <trkpt lat="49.84581" lon="0.62497">
        <ele>70.94</ele>
        <time>2015-11-26T17:36:19Z</time>
      </trkpt>
      <trkpt lat="49.8467" lon="0.62423">
        <ele>72.199</ele>
        <time>2015-11-26T17:35:59Z</time>
      </trkpt>
      <trkpt lat="49.84756" lon="0.62361">
        <ele>73.038</ele>
        <time>2015-11-26T17:35:39Z</time>
      </trkpt>
      <trkpt lat="49.84826" lon="0.62286">
        <ele>72.091</ele>
        <time>2015-11-26T17:35:19Z</time>
      </trkpt>
      <trkpt lat="49.84896" lon="0.62222">
        <ele>70.732</ele>
        <time>2015-11-26T17:34:59Z</time>
      </trkpt>
      <trkpt lat="49.84995" lon="0.62155">
        <ele>68.734</ele>
        <time>2015-11-26T17:34:39Z</time>
      </trkpt>
      <trkpt lat="49.85099" lon="0.62066">
        <ele>68.069</ele>
        <time>2015-11-26T17:34:19Z</time>
      </trkpt>
      <trkpt lat="49.85184" lon="0.61938">
        <ele>66.808</ele>
        <time>2015-11-26T17:33:59Z</time>
      </trkpt>
      <trkpt lat="49.85278" lon="0.61839">
        <ele>65.014</ele>
        <time>2015-11-26T17:33:39Z</time>
      </trkpt>
      <trkpt lat="49.85336" lon="0.61759">
        <ele>63.386</ele>
        <time>2015-11-26T17:33:19Z</time>
      </trkpt>
      <trkpt lat="49.85403" lon="0.61636">
        <ele>63.535</ele>
        <time>2015-11-26T17:32:59Z</time>
      </trkpt>
      <trkpt lat="49.85467" lon="0.61556">
        <ele>61.019</ele>
        <time>2015-11-26T17:32:39Z</time>
      </trkpt>
      <trkpt lat="49.85521" lon="0.61517">
        <ele>58.325</ele>
        <time>2015-11-26T17:32:19Z</time>
      </trkpt>
      <trkpt lat="49.8552" lon="0.61432">
        <ele>54.634</ele>
        <time>2015-11-26T17:31:59Z</time>
      </trkpt>
      <trkpt lat="49.85518" lon="0.61418">
        <ele>54.723</ele>
        <time>2020-12-10T16:58:18Z</time>
      </trkpt>
      <trkpt lat="49.85523" lon="0.61404">
        <ele>54.276</ele>
        <time>2020-12-10T16:57:58Z</time>
      </trkpt>
      <trkpt lat="49.85528" lon="0.61382">
        <ele>53.497</ele>
        <time>2020-12-10T16:57:38Z</time>
      </trkpt>
      <trkpt lat="49.85528" lon="0.61353">
        <ele>52.029</ele>
        <time>2020-12-10T16:57:18Z</time>
      </trkpt>
      <trkpt lat="49.85523" lon="0.61331">
        <ele>50.594</ele>
        <time>2020-12-10T16:56:58Z</time>
      </trkpt>
      <trkpt lat="49.85519" lon="0.61304">
        <ele>48.008</ele>
        <time>2020-12-10T16:56:38Z</time>
      </trkpt>
      <trkpt lat="49.85523" lon="0.61277">
        <ele>46.317</ele>
        <time>2020-12-10T16:56:18Z</time>
      </trkpt>
      <trkpt lat="49.85523" lon="0.61246">
        <ele>43.761</ele>
        <time>2020-12-10T16:55:58Z</time>
      </trkpt>
      <trkpt lat="49.85534" lon="0.61238">
        <ele>44.081</ele>
        <time>2020-12-10T16:55:38Z</time>
      </trkpt>
      <trkpt lat="49.85539" lon="0.61223">
        <ele>42.88</ele>
        <time>2020-12-10T16:55:18Z</time>
      </trkpt>
      <trkpt lat="49.85544" lon="0.61216">
        <ele>42.646</ele>
        <time>2020-12-10T16:54:58Z</time>
      </trkpt>
      <trkpt lat="49.85555" lon="0.61219">
        <ele>44.195</ele>
        <time>2020-12-10T16:54:38Z</time>
      </trkpt>
      <trkpt lat="49.85572" lon="0.61218">
        <ele>45.774</ele>
        <time>2020-12-10T16:54:18Z</time>
      </trkpt>
      <trkpt lat="49.85581" lon="0.61206">
        <ele>45.547</ele>
        <time>2020-12-10T16:53:58Z</time>
      </trkpt>
      <trkpt lat="49.85589" lon="0.61182">
        <ele>44.128</ele>
        <time>2020-12-10T16:53:38Z</time>
      </trkpt>
      <trkpt lat="49.8559" lon="0.6116">
        <ele>42.29</ele>
        <time>2020-12-10T16:53:18Z</time>
      </trkpt>
      <trkpt lat="49.85594" lon="0.61139">
        <ele>40.715</ele>
        <time>2020-12-10T16:52:58Z</time>
      </trkpt>
      <trkpt lat="49.85596" lon="0.61116">
        <ele>38.708</ele>
        <time>2020-12-10T16:52:38Z</time>
      </trkpt>
      <trkpt lat="49.85598" lon="0.61106">
        <ele>37.921</ele>
        <time>2020-12-10T16:52:18Z</time>
      </trkpt>
      <trkpt lat="49.85606" lon="0.61105">
        <ele>38.865</ele>
        <time>2020-12-10T16:51:58Z</time>
      </trkpt>
      <trkpt lat="49.85611" lon="0.61094">
        <ele>38.393</ele>
        <time>2020-12-10T16:51:38Z</time>
      </trkpt>
      <trkpt lat="49.85611" lon="0.61088">
        <ele>37.893</ele>
        <time>2020-12-10T16:51:18Z</time>
      </trkpt>
      <trkpt lat="49.85617" lon="0.61077">
        <ele>36.839</ele>
        <time>2020-12-10T16:50:58Z</time>
      </trkpt>
      <trkpt lat="49.85622" lon="0.61061">
        <ele>33.968</ele>
        <time>2020-12-10T16:50:38Z</time>
      </trkpt>
      <trkpt lat="49.8562" lon="0.61056">
        <ele>32.787</ele>
        <time>2020-12-10T16:50:18Z</time>
      </trkpt>
      <trkpt lat="49.85604" lon="0.61064">
        <ele>33.16</ele>
        <time>2020-12-10T16:49:58Z</time>
      </trkpt>
      <trkpt lat="49.85574" lon="0.61072">
        <ele>31.241</ele>
        <time>2020-12-10T16:49:38Z</time>
      </trkpt>
      <trkpt lat="49.85563" lon="0.61108">
        <ele>33.833</ele>
        <time>2020-12-10T16:49:18Z</time>
      </trkpt>
      <trkpt lat="49.85562" lon="0.61132">
        <ele>36.058</ele>
        <time>2020-12-10T16:48:58Z</time>
      </trkpt>
      <trkpt lat="49.85559" lon="0.61137">
        <ele>36.008</ele>
        <time>2020-12-10T16:48:38Z</time>
      </trkpt>
      <trkpt lat="49.85553" lon="0.6112">
        <ele>33.714</ele>
        <time>2020-12-10T16:48:18Z</time>
      </trkpt>
      <trkpt lat="49.85551" lon="0.61103">
        <ele>31.768</ele>
        <time>2020-12-10T16:47:58Z</time>
      </trkpt>
      <trkpt lat="49.85544" lon="0.61091">
        <ele>29.627</ele>
        <time>2020-12-10T16:47:38Z</time>
      </trkpt>
      <trkpt lat="49.85549" lon="0.61054">
        <ele>25.844</ele>
        <time>2020-12-10T16:47:18Z</time>
      </trkpt>
      <trkpt lat="49.85548" lon="0.61032">
        <ele>23.19</ele>
        <time>2020-12-10T16:46:58Z</time>
      </trkpt>
      <trkpt lat="49.85567" lon="0.61023">
        <ele>24.069</ele>
        <time>2020-12-10T16:46:38Z</time>
      </trkpt>
      <trkpt lat="49.85593" lon="0.61017">
        <ele>25.198</ele>
        <time>2020-12-10T16:46:18Z</time>
      </trkpt>
      <trkpt lat="49.85616" lon="0.60963">
        <ele>15.311</ele>
        <time>2020-12-10T16:45:58Z</time>
      </trkpt>
      <trkpt lat="49.85594" lon="0.60952">
        <ele>14.832</ele>
        <time>2020-12-10T16:45:38Z</time>
      </trkpt>
      <trkpt lat="49.85583" lon="0.60971">
        <ele>18.464</ele>
        <time>2020-12-10T16:45:18Z</time>
      </trkpt>
      <trkpt lat="49.85566" lon="0.60983">
        <ele>18.719</ele>
        <time>2020-12-10T16:44:58Z</time>
      </trkpt>
      <trkpt lat="49.85551" lon="0.60977">
        <ele>16.508</ele>
        <time>2020-12-10T16:44:38Z</time>
      </trkpt>
      <trkpt lat="49.85526" lon="0.60991">
        <ele>15.711</ele>
        <time>2020-12-10T16:44:18Z</time>
      </trkpt>
      <trkpt lat="49.85523" lon="0.61">
        <ele>16.592</ele>
        <time>2020-12-10T16:43:58Z</time>
      </trkpt>
      <trkpt lat="49.85512" lon="0.60987">
        <ele>13.932</ele>
        <time>2020-12-10T16:43:38Z</time>
      </trkpt>
      <trkpt lat="49.8551" lon="0.60968">
        <ele>11.832</ele>
        <time>2020-12-10T16:43:18Z</time>
      </trkpt>
      <trkpt lat="49.85539" lon="0.60932">
        <ele>9.888</ele>
        <time>2020-12-10T16:42:58Z</time>
      </trkpt>
      <trkpt lat="49.85543" lon="0.60901">
        <ele>7.237</ele>
        <time>2020-12-10T16:42:38Z</time>
      </trkpt>
      <trkpt lat="49.85538" lon="0.60881">
        <ele>6.056</ele>
        <time>2020-12-10T16:42:18Z</time>
      </trkpt>
      <trkpt lat="49.85543" lon="0.60869">
        <ele>5.579</ele>
        <time>2020-12-10T16:41:58Z</time>
      </trkpt>
      <trkpt lat="49.85544" lon="0.60841">
        <ele>4.05</ele>
        <time>2020-12-10T16:41:38Z</time>
      </trkpt>
      <trkpt lat="49.85554" lon="0.60837">
        <ele>3.982</ele>
        <time>2020-12-10T16:41:18Z</time>
      </trkpt>
      <trkpt lat="49.8556" lon="0.60816">
        <ele>3.677</ele>
        <time>2020-12-10T16:40:58Z</time>
      </trkpt>
      <trkpt lat="49.85597" lon="0.60799">
        <ele>3.308</ele>
        <time>2020-12-10T16:40:38Z</time>
      </trkpt>
      <trkpt lat="49.85628" lon="0.60783">
        <ele>2.807</ele>
        <time>2020-12-10T16:40:18Z</time>
      </trkpt>
      <trkpt lat="49.85605" lon="0.60737">
        <ele>2.843</ele>
        <time>2020-12-10T16:39:58Z</time>
      </trkpt>
      <trkpt lat="49.85523" lon="0.60616">
        <ele>3.813</ele>
        <time>2020-12-10T16:39:38Z</time>
      </trkpt>
      <trkpt lat="49.85402" lon="0.60386">
        <ele>3.38</ele>
        <time>2020-12-10T16:39:18Z</time>
      </trkpt>
      <trkpt lat="49.85353" lon="0.60239">
        <ele>3.916</ele>
        <time>2020-12-10T16:38:58Z</time>
      </trkpt>
      <trkpt lat="49.85302" lon="0.60002">
        <ele>20.995</ele>
        <time>2020-12-10T16:38:38Z</time>
      </trkpt>
      <trkpt lat="49.85285" lon="0.59812">
        <ele>13.264</ele>
        <time>2020-12-10T16:38:18Z</time>
      </trkpt>
      <trkpt lat="49.8529" lon="0.59667">
        <ele>5.097</ele>
        <time>2020-12-10T16:37:58Z</time>
      </trkpt>
      <trkpt lat="49.85282" lon="0.59664">
        <ele>5.168</ele>
        <time>2020-12-10T16:37:38Z</time>
      </trkpt>
      <trkpt lat="49.85274" lon="0.59648">
        <ele>5.79</ele>
        <time>2020-12-10T16:37:18Z</time>
      </trkpt>
      <trkpt lat="49.85258" lon="0.59645">
        <ele>5.895</ele>
        <time>2020-12-10T16:36:58Z</time>
      </trkpt>
      <trkpt lat="49.85244" lon="0.59652">
        <ele>5.608</ele>
        <time>2020-12-10T16:36:38Z</time>
      </trkpt>
      <trkpt lat="49.8512" lon="0.59636">
        <ele>8.326</ele>
        <time>2020-12-10T16:36:18Z</time>
      </trkpt>
      <trkpt lat="49.85079" lon="0.59637">
        <ele>9.215</ele>
        <time>2020-12-10T16:35:58Z</time>
      </trkpt>
      <trkpt lat="49.85004" lon="0.59651">
        <ele>8.798</ele>
        <time>2020-12-10T16:35:38Z</time>
      </trkpt>
      <trkpt lat="49.84975" lon="0.59651">
        <ele>8.668</ele>
        <time>2020-12-10T16:35:18Z</time>
      </trkpt>
      <trkpt lat="49.84909" lon="0.59632">
        <ele>9.794</ele>
        <time>2020-12-10T16:34:58Z</time>
      </trkpt>
      <trkpt lat="49.84863" lon="0.59606">
        <ele>9.463</ele>
        <time>2020-12-10T16:34:38Z</time>
      </trkpt>
      <trkpt lat="49.84826" lon="0.59579">
        <ele>8.752</ele>
        <time>2020-12-10T16:34:18Z</time>
      </trkpt>
      <trkpt lat="49.84808" lon="0.59556">
        <ele>10.465</ele>
        <time>2020-12-10T16:33:58Z</time>
      </trkpt>
      <trkpt lat="49.84825" lon="0.59531">
        <ele>11.256</ele>
        <time>2020-12-10T16:33:38Z</time>
      </trkpt>
      <trkpt lat="49.84809" lon="0.59446">
        <ele>18.098</ele>
        <time>2020-12-10T16:33:18Z</time>
      </trkpt>
      <trkpt lat="49.84793" lon="0.5939">
        <ele>21.093</ele>
        <time>2020-12-10T16:32:58Z</time>
      </trkpt>
      <trkpt lat="49.84774" lon="0.59349">
        <ele>20.708</ele>
        <time>2020-12-10T16:32:38Z</time>
      </trkpt>
      <trkpt lat="49.84742" lon="0.59314">
        <ele>18.715</ele>
        <time>2020-12-10T16:32:18Z</time>
      </trkpt>
      <trkpt lat="49.84725" lon="0.59285">
        <ele>22.541</ele>
        <time>2020-12-10T16:31:58Z</time>
      </trkpt>
      <trkpt lat="49.84681" lon="0.59246">
        <ele>22.371</ele>
        <time>2020-12-10T16:31:38Z</time>
      </trkpt>
      <trkpt lat="49.84671" lon="0.59223">
        <ele>24.87</ele>
        <time>2020-12-10T16:31:18Z</time>
      </trkpt>
      <trkpt lat="49.84668" lon="0.59209">
        <ele>27.046</ele>
        <time>2020-12-10T16:30:58Z</time>
      </trkpt>
      <trkpt lat="49.8468" lon="0.5921">
        <ele>28.635</ele>
        <time>2020-12-10T16:30:38Z</time>
      </trkpt>
      <trkpt lat="49.84689" lon="0.59188">
        <ele>33.964</ele>
        <time>2020-12-10T16:30:18Z</time>
      </trkpt>
      <trkpt lat="49.84703" lon="0.59181">
        <ele>37.197</ele>
        <time>2020-12-10T16:29:58Z</time>
      </trkpt>
      <trkpt lat="49.84727" lon="0.59195">
        <ele>38.078</ele>
        <time>2020-12-10T16:29:38Z</time>
      </trkpt>
      <trkpt lat="49.84743" lon="0.59226">
        <ele>36.18</ele>
        <time>2020-12-10T16:29:18Z</time>
      </trkpt>
      <trkpt lat="49.8475" lon="0.59224">
        <ele>37.495</ele>
        <time>2020-12-10T16:28:58Z</time>
      </trkpt>
      <trkpt lat="49.84714" lon="0.59143">
        <ele>44.008</ele>
        <time>2020-12-10T16:28:38Z</time>
      </trkpt>
      <trkpt lat="49.84709" lon="0.59121">
        <ele>46.722</ele>
        <time>2020-12-10T16:28:18Z</time>
      </trkpt>
      <trkpt lat="49.84702" lon="0.59114">
        <ele>47.157</ele>
        <time>2020-12-10T16:27:58Z</time>
      </trkpt>
      <trkpt lat="49.84706" lon="0.59092">
        <ele>50.794</ele>
        <time>2020-12-10T16:27:38Z</time>
      </trkpt>
      <trkpt lat="49.84717" lon="0.59084">
        <ele>52.444</ele>
        <time>2020-12-10T16:27:18Z</time>
      </trkpt>
      <trkpt lat="49.84741" lon="0.59084">
        <ele>53.53</ele>
        <time>2020-12-10T16:26:58Z</time>
      </trkpt>
      <trkpt lat="49.8475" lon="0.59001">
        <ele>63.929</ele>
        <time>2020-12-10T16:26:38Z</time>
      </trkpt>
      <trkpt lat="49.84753" lon="0.5876">
        <ele>73.558</ele>
        <time>2020-12-10T16:26:18Z</time>
      </trkpt>
      <trkpt lat="49.84686" lon="0.58758">
        <ele>74.431</ele>
        <time>2020-12-10T16:25:58Z</time>
      </trkpt>
      <trkpt lat="49.8467" lon="0.58753">
        <ele>74.882</ele>
        <time>2020-12-10T16:25:38Z</time>
      </trkpt>
      <trkpt lat="49.84661" lon="0.58673">
        <ele>74.924</ele>
        <time>2020-12-10T16:25:18Z</time>
      </trkpt>
      <trkpt lat="49.8466" lon="0.58631">
        <ele>75.799</ele>
        <time>2020-12-10T16:24:58Z</time>
      </trkpt>
      <trkpt lat="49.84658" lon="0.58616">
        <ele>76.008</ele>
        <time>2020-12-10T16:24:38Z</time>
      </trkpt>
      <trkpt lat="49.84611" lon="0.58591">
        <ele>74.913</ele>
        <time>2020-12-10T16:24:18Z</time>
      </trkpt>
      <trkpt lat="49.84535" lon="0.58586">
        <ele>74.049</ele>
        <time>2020-12-10T16:23:58Z</time>
      </trkpt>
      <trkpt lat="49.84457" lon="0.58588">
        <ele>74.537</ele>
        <time>2020-12-10T16:23:38Z</time>
      </trkpt>
      <trkpt lat="49.84398" lon="0.5856">
        <ele>75.035</ele>
        <time>2020-12-10T16:23:18Z</time>
      </trkpt>
      <trkpt lat="49.84324" lon="0.58566">
        <ele>75.031</ele>
        <time>2020-12-10T16:22:58Z</time>
      </trkpt>
      <trkpt lat="49.84293" lon="0.58574">
        <ele>75.06</ele>
        <time>2020-12-10T16:22:38Z</time>
      </trkpt>
      <trkpt lat="49.84172" lon="0.58609">
        <ele>70.779</ele>
        <time>2020-12-10T16:22:18Z</time>
      </trkpt>
      <trkpt lat="49.84145" lon="0.5861">
        <ele>68.452</ele>
        <time>2020-12-10T16:21:58Z</time>
      </trkpt>
      <trkpt lat="49.84114" lon="0.58592">
        <ele>66.793</ele>
        <time>2020-12-10T16:21:38Z</time>
      </trkpt>
      <trkpt lat="49.84091" lon="0.58565">
        <ele>66.855</ele>
        <time>2020-12-10T16:21:18Z</time>
      </trkpt>
      <trkpt lat="49.84031" lon="0.58524">
        <ele>65.36</ele>
        <time>2020-12-10T16:20:58Z</time>
      </trkpt>
      <trkpt lat="49.84157" lon="0.58384">
        <ele>74.808</ele>
        <time>2020-12-10T16:20:38Z</time>
      </trkpt>
      <trkpt lat="49.83397" lon="0.56703">
        <ele>81.616</ele>
        <time>2020-12-10T16:20:18Z</time>
      </trkpt>
      <trkpt lat="49.83319" lon="0.56645">
        <ele>82.388</ele>
        <time>2020-12-10T16:19:58Z</time>
      </trkpt>
      <trkpt lat="49.83143" lon="0.56516">
        <ele>83.246</ele>
        <time>2020-12-10T16:19:38Z</time>
      </trkpt>
      <trkpt lat="49.8305" lon="0.5648">
        <ele>82.824</ele>
        <time>2020-12-10T16:19:18Z</time>
      </trkpt>
      <trkpt lat="49.82968" lon="0.56433">
        <ele>81.17</ele>
        <time>2020-12-10T16:18:58Z</time>
      </trkpt>
      <trkpt lat="49.83041" lon="0.56264">
        <ele>82.759</ele>
        <time>2020-12-10T16:18:38Z</time>
      </trkpt>
      <trkpt lat="49.83092" lon="0.56128">
        <ele>80.648</ele>
        <time>2020-12-10T16:18:18Z</time>
      </trkpt>
      <trkpt lat="49.83122" lon="0.56007">
        <ele>81.661</ele>
        <time>2020-12-10T16:17:58Z</time>
      </trkpt>
      <trkpt lat="49.83157" lon="0.55884">
        <ele>81.352</ele>
        <time>2020-12-10T16:17:38Z</time>
      </trkpt>
      <trkpt lat="49.83191" lon="0.55668">
        <ele>76.764</ele>
        <time>2020-12-10T16:17:18Z</time>
      </trkpt>
      <trkpt lat="49.83199" lon="0.55627">
        <ele>77.189</ele>
        <time>2020-12-10T16:16:58Z</time>
      </trkpt>
      <trkpt lat="49.83226" lon="0.55627">
        <ele>76.808</ele>
        <time>2020-12-10T16:16:38Z</time>
      </trkpt>
      <trkpt lat="49.83236" lon="0.556">
        <ele>77.015</ele>
        <time>2020-12-10T16:16:18Z</time>
      </trkpt>
      <trkpt lat="49.83258" lon="0.55563">
        <ele>77.423</ele>
        <time>2020-12-10T16:15:58Z</time>
      </trkpt>
      <trkpt lat="49.83361" lon="0.55469">
        <ele>77.333</ele>
        <time>2020-12-10T16:15:38Z</time>
      </trkpt>
      <trkpt lat="49.83379" lon="0.55441">
        <ele>77.533</ele>
        <time>2020-12-10T16:15:18Z</time>
      </trkpt>
      <trkpt lat="49.83236" lon="0.54911">
        <ele>81.349</ele>
        <time>2020-12-10T16:14:58Z</time>
      </trkpt>
      <trkpt lat="49.82983" lon="0.55076">
        <ele>85.278</ele>
        <time>2020-12-10T16:14:38Z</time>
      </trkpt>
      <trkpt lat="49.82819" lon="0.55235">
        <ele>87.077</ele>
        <time>2020-12-10T16:14:18Z</time>
      </trkpt>
      <trkpt lat="49.82806" lon="0.55221">
        <ele>87.14</ele>
        <time>2020-12-10T16:13:58Z</time>
      </trkpt>
      <trkpt lat="49.82796" lon="0.55218">
        <ele>87.191</ele>
        <time>2020-12-10T16:13:38Z</time>
      </trkpt>
      <trkpt lat="49.82771" lon="0.55167">
        <ele>88.083</ele>
        <time>2020-12-10T16:13:18Z</time>
      </trkpt>
      <trkpt lat="49.82737" lon="0.55107">
        <ele>87.948</ele>
        <time>2020-12-10T16:12:58Z</time>
      </trkpt>
      <trkpt lat="49.8268" lon="0.54967">
        <ele>87.908</ele>
        <time>2020-12-10T16:12:38Z</time>
      </trkpt>
      <trkpt lat="49.82666" lon="0.54887">
        <ele>87.611</ele>
        <time>2020-12-10T16:12:18Z</time>
      </trkpt>
      <trkpt lat="49.82645" lon="0.5481">
        <ele>87.583</ele>
        <time>2020-12-10T16:11:58Z</time>
      </trkpt>
      <trkpt lat="49.8261" lon="0.54703">
        <ele>87.823</ele>
        <time>2020-12-10T16:11:38Z</time>
      </trkpt>
      <trkpt lat="49.82571" lon="0.54568">
        <ele>88.167</ele>
        <time>2020-12-10T16:11:18Z</time>
      </trkpt>
      <trkpt lat="49.8254" lon="0.54424">
        <ele>88.563</ele>
        <time>2020-12-10T16:10:58Z</time>
      </trkpt>
      <trkpt lat="49.82507" lon="0.54218">
        <ele>89.352</ele>
        <time>2020-12-10T16:10:38Z</time>
      </trkpt>
      <trkpt lat="49.82498" lon="0.54138">
        <ele>89.731</ele>
        <time>2020-12-10T16:10:18Z</time>
      </trkpt>
      <trkpt lat="49.82501" lon="0.54068">
        <ele>89.074</ele>
        <time>2020-12-10T16:09:58Z</time>
      </trkpt>
      <trkpt lat="49.82493" lon="0.54001">
        <ele>89.235</ele>
        <time>2020-12-10T16:09:38Z</time>
      </trkpt>
      <trkpt lat="49.82485" lon="0.53841">
        <ele>86.287</ele>
        <time>2020-12-10T16:09:18Z</time>
      </trkpt>
      <trkpt lat="49.82442" lon="0.5386">
        <ele>86.942</ele>
        <time>2020-12-10T16:08:58Z</time>
      </trkpt>
      <trkpt lat="49.82304" lon="0.53543">
        <ele>76.908</ele>
        <time>2020-12-10T16:08:38Z</time>
      </trkpt>
      <trkpt lat="49.82292" lon="0.5353">
        <ele>75.314</ele>
        <time>2020-12-10T16:08:18Z</time>
      </trkpt>
      <trkpt lat="49.82276" lon="0.53539">
        <ele>74.268</ele>
        <time>2020-12-10T16:07:58Z</time>
      </trkpt>
      <trkpt lat="49.82239" lon="0.53612">
        <ele>75.965</ele>
        <time>2020-12-10T16:07:38Z</time>
      </trkpt>
      <trkpt lat="49.82213" lon="0.53642">
        <ele>77.335</ele>
        <time>2020-12-10T16:07:18Z</time>
      </trkpt>
      <trkpt lat="49.82207" lon="0.53627">
        <ele>76.851</ele>
        <time>2020-12-10T16:06:58Z</time>
      </trkpt>
      <trkpt lat="49.8222" lon="0.53599">
        <ele>75.77</ele>
        <time>2020-12-10T16:06:38Z</time>
      </trkpt>
      <trkpt lat="49.82229" lon="0.53524">
        <ele>72.449</ele>
        <time>2020-12-10T16:06:18Z</time>
      </trkpt>
      <trkpt lat="49.82226" lon="0.53464">
        <ele>68.992</ele>
        <time>2020-12-10T16:05:58Z</time>
      </trkpt>
      <trkpt lat="49.82211" lon="0.53423">
        <ele>66.153</ele>
        <time>2020-12-10T16:05:38Z</time>
      </trkpt>
      <trkpt lat="49.82198" lon="0.53337">
        <ele>61.135</ele>
        <time>2020-12-10T16:05:18Z</time>
      </trkpt>
      <trkpt lat="49.82194" lon="0.53291">
        <ele>58.72</ele>
        <time>2020-12-10T16:04:58Z</time>
      </trkpt>
      <trkpt lat="49.82204" lon="0.53282">
        <ele>59.708</ele>
        <time>2020-12-10T16:04:38Z</time>
      </trkpt>
      <trkpt lat="49.82206" lon="0.53262">
        <ele>59.509</ele>
        <time>2020-12-10T16:04:18Z</time>
      </trkpt>
      <trkpt lat="49.82163" lon="0.53124">
        <ele>50.181</ele>
        <time>2020-12-10T16:03:58Z</time>
      </trkpt>
      <trkpt lat="49.82157" lon="0.53089">
        <ele>49.941</ele>
        <time>2020-12-10T16:03:38Z</time>
      </trkpt>
      <trkpt lat="49.82159" lon="0.53046">
        <ele>46.997</ele>
        <time>2020-12-10T16:03:18Z</time>
      </trkpt>
      <trkpt lat="49.82174" lon="0.52981">
        <ele>42.533</ele>
        <time>2020-12-10T16:02:58Z</time>
      </trkpt>
      <trkpt lat="49.82205" lon="0.52897">
        <ele>37.682</ele>
        <time>2020-12-10T16:02:38Z</time>
      </trkpt>
      <trkpt lat="49.82233" lon="0.52851">
        <ele>33.991</ele>
        <time>2020-12-10T16:02:18Z</time>
      </trkpt>
      <trkpt lat="49.825" lon="0.52708">
        <ele>30.484</ele>
        <time>2020-12-10T16:01:58Z</time>
      </trkpt>
      <trkpt lat="49.82524" lon="0.52691">
        <ele>32.825</ele>
        <time>2020-12-10T16:01:38Z</time>
      </trkpt>
      <trkpt lat="49.82541" lon="0.52656">
        <ele>30.967</ele>
        <time>2020-12-10T16:01:18Z</time>
      </trkpt>
      <trkpt lat="49.82582" lon="0.525">
        <ele>10.192</ele>
        <time>2020-12-10T16:00:58Z</time>
      </trkpt>
      <trkpt lat="49.82529" lon="0.52455">
        <ele>9.808</ele>
        <time>2020-12-10T16:00:38Z</time>
      </trkpt>
      <trkpt lat="49.82477" lon="0.52513">
        <ele>15.616</ele>
        <time>2020-12-10T16:00:18Z</time>
      </trkpt>
      <trkpt lat="49.82388" lon="0.5231">
        <ele>34.906</ele>
        <time>2020-12-10T15:59:58Z</time>
      </trkpt>
      <trkpt lat="49.82404" lon="0.52261">
        <ele>27.764</ele>
        <time>2020-12-10T15:59:38Z</time>
      </trkpt>
      <trkpt lat="49.82377" lon="0.52197">
        <ele>48.036</ele>
        <time>2017-04-17T21:07:29Z</time>
      </trkpt>
      <trkpt lat="49.82337" lon="0.52141">
        <ele>60.032</ele>
        <time>2017-04-17T21:07:09Z</time>
      </trkpt>
      <trkpt lat="49.82194" lon="0.51774">
        <ele>58.041</ele>
        <time>2017-04-17T21:06:49Z</time>
      </trkpt>
      <trkpt lat="49.82119" lon="0.51613">
        <ele>56.05</ele>
        <time>2017-04-17T21:06:29Z</time>
      </trkpt>
      <trkpt lat="49.82056" lon="0.51553">
        <ele>65.033</ele>
        <time>2017-04-17T21:06:09Z</time>
      </trkpt>
      <trkpt lat="49.82024" lon="0.51491">
        <ele>49.084</ele>
        <time>2017-04-17T21:05:49Z</time>
      </trkpt>
      <trkpt lat="49.81986" lon="0.51454">
        <ele>54.026</ele>
        <time>2017-04-17T21:05:29Z</time>
      </trkpt>
      <trkpt lat="49.81974" lon="0.5142">
        <ele>50.091</ele>
        <time>2017-04-17T21:05:09Z</time>
      </trkpt>
      <trkpt lat="49.81938" lon="0.51394">
        <ele>39.008</ele>
        <time>2017-04-17T21:04:49Z</time>
      </trkpt>
      <trkpt lat="49.8188" lon="0.51401">
        <ele>44.014</ele>
        <time>2017-04-17T21:04:29Z</time>
      </trkpt>
      <trkpt lat="49.81849" lon="0.5139">
        <ele>44.059</ele>
        <time>2017-04-17T21:04:09Z</time>
      </trkpt>
      <trkpt lat="49.81869" lon="0.51362">
        <ele>41.056</ele>
        <time>2017-04-17T21:03:49Z</time>
      </trkpt>
      <trkpt lat="49.81829" lon="0.51268">
        <ele>22.092</ele>
        <time>2017-04-17T21:03:29Z</time>
      </trkpt>
      <trkpt lat="49.81819" lon="0.51214">
        <ele>20.058</ele>
        <time>2017-04-17T21:03:09Z</time>
      </trkpt>
      <trkpt lat="49.81805" lon="0.51221">
        <ele>20.037</ele>
        <time>2017-04-17T21:02:49Z</time>
      </trkpt>
      <trkpt lat="49.81802" lon="0.51176">
        <ele>20.026</ele>
        <time>2017-04-17T21:02:29Z</time>
      </trkpt>
      <trkpt lat="49.81739" lon="0.50897">
        <ele>72.079</ele>
        <time>2017-04-17T21:02:09Z</time>
      </trkpt>
      <trkpt lat="49.81661" lon="0.50802">
        <ele>79.04</ele>
        <time>2017-04-17T21:01:49Z</time>
      </trkpt>
      <trkpt lat="49.81368" lon="0.50766">
        <ele>74.082</ele>
        <time>2017-04-17T21:01:29Z</time>
      </trkpt>
      <trkpt lat="49.81373" lon="0.50397">
        <ele>83.057</ele>
        <time>2017-04-17T21:01:09Z</time>
      </trkpt>
      <trkpt lat="49.8135" lon="0.50367">
        <ele>83.008</ele>
        <time>2017-04-17T21:00:49Z</time>
      </trkpt>
      <trkpt lat="49.81361" lon="0.49832">
        <ele>84.007</ele>
        <time>2017-04-17T21:00:29Z</time>
      </trkpt>
      <trkpt lat="49.81167" lon="0.49322">
        <ele>76.043</ele>
        <time>2017-04-17T21:00:09Z</time>
      </trkpt>
      <trkpt lat="49.81092" lon="0.49341">
        <ele>78.013</ele>
        <time>2017-04-17T20:59:49Z</time>
      </trkpt>
      <trkpt lat="49.81032" lon="0.49334">
        <ele>81.043</ele>
        <time>2017-04-17T20:59:29Z</time>
      </trkpt>
      <trkpt lat="49.81068" lon="0.49255">
        <ele>76.029</ele>
        <time>2017-04-17T20:59:09Z</time>
      </trkpt>
      <trkpt lat="49.81057" lon="0.49122">
        <ele>63.018</ele>
        <time>2017-04-17T20:58:49Z</time>
      </trkpt>
      <trkpt lat="49.81009" lon="0.49094">
        <ele>68.017</ele>
        <time>2017-04-17T20:58:29Z</time>
      </trkpt>
      <trkpt lat="49.80926" lon="0.49116">
        <ele>73.06</ele>
        <time>2017-04-17T20:58:09Z</time>
      </trkpt>
      <trkpt lat="49.80888" lon="0.49139">
        <ele>72.091</ele>
        <time>2017-04-17T20:57:49Z</time>
      </trkpt>
      <trkpt lat="49.80791" lon="0.49236">
        <ele>82.033</ele>
        <time>2017-04-17T20:57:29Z</time>
      </trkpt>
      <trkpt lat="49.80825" lon="0.49135">
        <ele>69.038</ele>
        <time>2017-04-17T20:57:09Z</time>
      </trkpt>
      <trkpt lat="49.80826" lon="0.49045">
        <ele>53.008</ele>
        <time>2017-04-17T20:56:49Z</time>
      </trkpt>
      <trkpt lat="49.80808" lon="0.49019">
        <ele>51.008</ele>
        <time>2017-04-17T20:56:29Z</time>
      </trkpt>
      <trkpt lat="49.80779" lon="0.49015">
        <ele>51.062</ele>
        <time>2017-04-17T20:56:09Z</time>
      </trkpt>
      <trkpt lat="49.80721" lon="0.4904">
        <ele>57.022</ele>
        <time>2017-04-17T20:55:49Z</time>
      </trkpt>
      <trkpt lat="49.8071" lon="0.48995">
        <ele>50.074</ele>
        <time>2017-04-17T20:55:29Z</time>
      </trkpt>
      <trkpt lat="49.80708" lon="0.48952">
        <ele>48.04</ele>
        <time>2017-04-17T20:55:09Z</time>
      </trkpt>
      <trkpt lat="49.80683" lon="0.48884">
        <ele>39.099</ele>
        <time>2017-04-17T20:54:49Z</time>
      </trkpt>
      <trkpt lat="49.8062" lon="0.48828">
        <ele>30.018</ele>
        <time>2017-04-17T20:54:29Z</time>
      </trkpt>
      <trkpt lat="49.80603" lon="0.48792">
        <ele>28.091</ele>
        <time>2017-04-17T20:54:09Z</time>
      </trkpt>
      <trkpt lat="49.80609" lon="0.48731">
        <ele>22.022</ele>
        <time>2017-04-17T20:53:49Z</time>
      </trkpt>
      <trkpt lat="49.80599" lon="0.48714">
        <ele>23.044</ele>
        <time>2017-04-17T20:53:29Z</time>
      </trkpt>
      <trkpt lat="49.80618" lon="0.48551">
        <ele>48.049</ele>
        <time>2017-04-17T20:53:09Z</time>
      </trkpt>
      <trkpt lat="49.80556" lon="0.48493">
        <ele>65.008</ele>
        <time>2017-04-17T20:52:49Z</time>
      </trkpt>
      <trkpt lat="49.80544" lon="0.48453">
        <ele>67.021</ele>
        <time>2017-04-17T20:52:29Z</time>
      </trkpt>
      <trkpt lat="49.80484" lon="0.48362">
        <ele>76.001</ele>
        <time>2017-04-17T20:52:09Z</time>
      </trkpt>
      <trkpt lat="49.80447" lon="0.48395">
        <ele>74.039</ele>
        <time>2017-04-17T20:51:49Z</time>
      </trkpt>
      <trkpt lat="49.80429" lon="0.48375">
        <ele>75.046</ele>
        <time>2017-04-17T20:51:29Z</time>
      </trkpt>
      <trkpt lat="49.80434" lon="0.48324">
        <ele>80.072</ele>
        <time>2017-04-17T20:51:09Z</time>
      </trkpt>
      <trkpt lat="49.804" lon="0.48234">
        <ele>81.091</ele>
        <time>2017-04-17T20:50:49Z</time>
      </trkpt>
      <trkpt lat="49.8031" lon="0.47953">
        <ele>84.06</ele>
        <time>2017-04-17T20:50:29Z</time>
      </trkpt>
      <trkpt lat="49.80044" lon="0.47523">
        <ele>88.013</ele>
        <time>2017-04-17T20:50:09Z</time>
      </trkpt>
      <trkpt lat="49.79628" lon="0.46935">
        <ele>95.014</ele>
        <time>2017-04-17T20:49:49Z</time>
      </trkpt>
      <trkpt lat="49.79566" lon="0.46828">
        <ele>96.046</ele>
        <time>2017-04-17T20:49:29Z</time>
      </trkpt>
      <trkpt lat="49.79354" lon="0.46371">
        <ele>98.071</ele>
        <time>2017-04-17T20:49:09Z</time>
      </trkpt>
      <trkpt lat="49.79199" lon="0.46054">
        <ele>100.008</ele>
        <time>2017-04-17T20:48:49Z</time>
      </trkpt>
      <trkpt lat="49.79134" lon="0.45897">
        <ele>99.014</ele>
        <time>2017-04-17T20:48:29Z</time>
      </trkpt>
      <trkpt lat="49.791" lon="0.45796">
        <ele>100.059</ele>
        <time>2017-04-17T20:48:09Z</time>
      </trkpt>
      <trkpt lat="49.79185" lon="0.45721">
        <ele>101.056</ele>
        <time>2017-04-17T20:47:49Z</time>
      </trkpt>
      <trkpt lat="49.79136" lon="0.45594">
        <ele>102.099</ele>
        <time>2017-04-17T20:47:29Z</time>
      </trkpt>
      <trkpt lat="49.79087" lon="0.45427">
        <ele>103.025</ele>
        <time>2017-04-17T20:47:09Z</time>
      </trkpt>
      <trkpt lat="49.79059" lon="0.45279">
        <ele>105.054</ele>
        <time>2017-04-17T20:46:49Z</time>
      </trkpt>
      <trkpt lat="49.7903" lon="0.45105">
        <ele>104.073</ele>
        <time>2017-04-17T20:46:29Z</time>
      </trkpt>
      <trkpt lat="49.78981" lon="0.44835">
        <ele>104.066</ele>
        <time>2017-04-17T20:46:09Z</time>
      </trkpt>
      <trkpt lat="49.78956" lon="0.44841">
        <ele>104.027</ele>
        <time>2017-04-17T20:45:49Z</time>
      </trkpt>
      <trkpt lat="49.78753" lon="0.44045">
        <ele>102.029</ele>
        <time>2017-04-17T20:45:29Z</time>
      </trkpt>
      <trkpt lat="49.78789" lon="0.43919">
        <ele>102.094</ele>
        <time>2017-04-17T20:45:09Z</time>
      </trkpt>
      <trkpt lat="49.78768" lon="0.43811">
        <ele>103.008</ele>
        <time>2017-04-17T20:44:49Z</time>
      </trkpt>
      <trkpt lat="49.78775" lon="0.4353">
        <ele>86.017</ele>
        <time>2017-04-17T20:44:29Z</time>
      </trkpt>
      <trkpt lat="49.78708" lon="0.43459">
        <ele>83.089</ele>
        <time>2017-04-17T20:44:09Z</time>
      </trkpt>
      <trkpt lat="49.78679" lon="0.43391">
        <ele>69.085</ele>
        <time>2017-04-17T20:43:49Z</time>
      </trkpt>
      <trkpt lat="49.78671" lon="0.43253">
        <ele>48.098</ele>
        <time>2017-04-17T20:43:29Z</time>
      </trkpt>
      <trkpt lat="49.78688" lon="0.43163">
        <ele>39.024</ele>
        <time>2017-04-17T20:43:09Z</time>
      </trkpt>
      <trkpt lat="49.78661" lon="0.43127">
        <ele>40.023</ele>
        <time>2017-04-17T20:42:49Z</time>
      </trkpt>
      <trkpt lat="49.78584" lon="0.43125">
        <ele>44.062</ele>
        <time>2017-04-17T20:42:29Z</time>
      </trkpt>
      <trkpt lat="49.78363" lon="0.43065">
        <ele>63.055</ele>
        <time>2017-04-17T20:42:09Z</time>
      </trkpt>
      <trkpt lat="49.78307" lon="0.43028">
        <ele>66.086</ele>
        <time>2017-04-17T20:41:49Z</time>
      </trkpt>
      <trkpt lat="49.7828" lon="0.43026">
        <ele>66.098</ele>
        <time>2017-04-17T20:41:29Z</time>
      </trkpt>
      <trkpt lat="49.78235" lon="0.43045">
        <ele>67.023</ele>
        <time>2017-04-17T20:41:09Z</time>
      </trkpt>
      <trkpt lat="49.78207" lon="0.43077">
        <ele>68.008</ele>
        <time>2017-04-17T20:40:49Z</time>
      </trkpt>
      <trkpt lat="49.78171" lon="0.43178">
        <ele>78.015</ele>
        <time>2017-04-17T20:40:29Z</time>
      </trkpt>
      <trkpt lat="49.78126" lon="0.43215">
        <ele>82.041</ele>
        <time>2017-04-17T20:40:09Z</time>
      </trkpt>
      <trkpt lat="49.78049" lon="0.43301">
        <ele>88.071</ele>
        <time>2017-04-17T20:39:49Z</time>
      </trkpt>
      <trkpt lat="49.78027" lon="0.43335">
        <ele>90.074</ele>
        <time>2017-04-17T20:39:29Z</time>
      </trkpt>
      <trkpt lat="49.77991" lon="0.43442">
        <ele>93.09</ele>
        <time>2017-04-17T20:39:09Z</time>
      </trkpt>
      <trkpt lat="49.77913" lon="0.43622">
        <ele>99.069</ele>
        <time>2017-04-17T20:38:49Z</time>
      </trkpt>
      <trkpt lat="49.77881" lon="0.43758">
        <ele>101.018</ele>
        <time>2017-04-17T20:38:29Z</time>
      </trkpt>
      <trkpt lat="49.77827" lon="0.43904">
        <ele>105.071</ele>
        <time>2017-04-17T20:38:09Z</time>
      </trkpt>
      <trkpt lat="49.77798" lon="0.43828">
        <ele>103.022</ele>
        <time>2017-04-17T20:37:49Z</time>
      </trkpt>
      <trkpt lat="49.77758" lon="0.43719">
        <ele>105.034</ele>
        <time>2017-04-17T20:37:29Z</time>
      </trkpt>
      <trkpt lat="49.77743" lon="0.43571">
        <ele>108.079</ele>
        <time>2017-04-17T20:37:09Z</time>
      </trkpt>
      <trkpt lat="49.77687" lon="0.43234">
        <ele>107.008</ele>
        <time>2017-04-17T20:36:49Z</time>
      </trkpt>
      <trkpt lat="49.77569" lon="0.42929">
        <ele>110.011</ele>
        <time>2017-04-17T20:36:29Z</time>
      </trkpt>
      <trkpt lat="49.7746" lon="0.42676">
        <ele>111.092</ele>
        <time>2017-04-17T20:36:09Z</time>
      </trkpt>
      <trkpt lat="49.77373" lon="0.42432">
        <ele>113.032</ele>
        <time>2017-04-17T20:35:49Z</time>
      </trkpt>
      <trkpt lat="49.77281" lon="0.4229">
        <ele>110.073</ele>
        <time>2017-04-17T20:35:29Z</time>
      </trkpt>
      <trkpt lat="49.77226" lon="0.42217">
        <ele>110.089</ele>
        <time>2017-04-17T20:35:09Z</time>
      </trkpt>
      <trkpt lat="49.77224" lon="0.42185">
        <ele>110.068</ele>
        <time>2017-04-17T20:34:49Z</time>
      </trkpt>
      <trkpt lat="49.77198" lon="0.42133">
        <ele>110.077</ele>
        <time>2017-04-17T20:34:29Z</time>
      </trkpt>
      <trkpt lat="49.77161" lon="0.42024">
        <ele>110.07</ele>
        <time>2017-04-17T20:34:09Z</time>
      </trkpt>
      <trkpt lat="49.77083" lon="0.41743">
        <ele>111.071</ele>
        <time>2017-04-17T20:33:49Z</time>
      </trkpt>
      <trkpt lat="49.7701" lon="0.41517">
        <ele>114.033</ele>
        <time>2017-04-17T20:33:29Z</time>
      </trkpt>
      <trkpt lat="49.76908" lon="0.41253">
        <ele>117.068</ele>
        <time>2017-04-17T20:33:09Z</time>
      </trkpt>
      <trkpt lat="49.77084" lon="0.41236">
        <ele>118.008</ele>
        <time>2017-04-17T20:32:49Z</time>
      </trkpt>
      <trkpt lat="49.77071" lon="0.40893">
        <ele>117.02</ele>
        <time>2017-04-17T20:32:29Z</time>
      </trkpt>
      <trkpt lat="49.77026" lon="0.40764">
        <ele>117</ele>
        <time>2017-04-17T20:32:09Z</time>
      </trkpt>
      <trkpt lat="49.76947" lon="0.40646">
        <ele>114.029</ele>
        <time>2017-04-17T20:31:49Z</time>
      </trkpt>
      <trkpt lat="49.76899" lon="0.40586">
        <ele>112.049</ele>
        <time>2017-04-17T20:31:29Z</time>
      </trkpt>
      <trkpt lat="49.76859" lon="0.40498">
        <ele>111.075</ele>
        <time>2017-04-17T20:31:09Z</time>
      </trkpt>
      <trkpt lat="49.76831" lon="0.40408">
        <ele>111.064</ele>
        <time>2017-04-17T20:30:49Z</time>
      </trkpt>
      <trkpt lat="49.76773" lon="0.40361">
        <ele>113.063</ele>
        <time>2017-04-17T20:30:29Z</time>
      </trkpt>
      <trkpt lat="49.76749" lon="0.40322">
        <ele>114.036</ele>
        <time>2017-04-17T20:30:09Z</time>
      </trkpt>
      <trkpt lat="49.76692" lon="0.40142">
        <ele>118.057</ele>
        <time>2017-04-17T20:29:49Z</time>
      </trkpt>
      <trkpt lat="49.7668" lon="0.40052">
        <ele>121.029</ele>
        <time>2017-04-17T20:29:29Z</time>
      </trkpt>
      <trkpt lat="49.76698" lon="0.3985">
        <ele>121.014</ele>
        <time>2017-04-17T20:29:09Z</time>
      </trkpt>
      <trkpt lat="49.76703" lon="0.39715">
        <ele>122.008</ele>
        <time>2017-04-17T20:28:49Z</time>
      </trkpt>
      <trkpt lat="49.76749" lon="0.3973">
        <ele>122.026</ele>
        <time>2017-04-17T20:28:29Z</time>
      </trkpt>
      <trkpt lat="49.77003" lon="0.39492">
        <ele>117.006</ele>
        <time>2017-04-17T20:28:09Z</time>
      </trkpt>
      <trkpt lat="49.76878" lon="0.3917">
        <ele>119.089</ele>
        <time>2017-04-17T20:27:49Z</time>
      </trkpt>
      <trkpt lat="49.76724" lon="0.38631">
        <ele>120.093</ele>
        <time>2017-04-17T20:27:29Z</time>
      </trkpt>
      <trkpt lat="49.76676" lon="0.38228">
        <ele>115.059</ele>
        <time>2017-04-17T20:27:09Z</time>
      </trkpt>
      <trkpt lat="49.76767" lon="0.38168">
        <ele>116.028</ele>
        <time>2017-04-17T20:26:49Z</time>
      </trkpt>
      <trkpt lat="49.76786" lon="0.38176">
        <ele>117.017</ele>
        <time>2017-04-17T20:26:29Z</time>
      </trkpt>
      <trkpt lat="49.76799" lon="0.38206">
        <ele>117.08</ele>
        <time>2017-04-17T20:26:09Z</time>
      </trkpt>
      <trkpt lat="49.76906" lon="0.38172">
        <ele>104.041</ele>
        <time>2017-04-17T20:25:49Z</time>
      </trkpt>
      <trkpt lat="49.76889" lon="0.38101">
        <ele>102.023</ele>
        <time>2017-04-17T20:25:29Z</time>
      </trkpt>
      <trkpt lat="49.76868" lon="0.37981">
        <ele>94.028</ele>
        <time>2017-04-17T20:25:09Z</time>
      </trkpt>
      <trkpt lat="49.76871" lon="0.37938">
        <ele>88.008</ele>
        <time>2017-04-17T20:24:49Z</time>
      </trkpt>
      <trkpt lat="49.76853" lon="0.37906">
        <ele>90.02</ele>
        <time>2017-04-17T20:24:29Z</time>
      </trkpt>
      <trkpt lat="49.76824" lon="0.37756">
        <ele>107</ele>
        <time>2017-04-17T20:24:09Z</time>
      </trkpt>
      <trkpt lat="49.76843" lon="0.37692">
        <ele>88.029</ele>
        <time>2017-04-17T20:23:49Z</time>
      </trkpt>
      <trkpt lat="49.76824" lon="0.37636">
        <ele>103.057</ele>
        <time>2017-04-17T20:23:29Z</time>
      </trkpt>
      <trkpt lat="49.76813" lon="0.37546">
        <ele>100.073</ele>
        <time>2017-04-17T20:23:09Z</time>
      </trkpt>
      <trkpt lat="49.76793" lon="0.37449">
        <ele>96.022</ele>
        <time>2017-04-17T20:22:49Z</time>
      </trkpt>
      <trkpt lat="49.76802" lon="0.3735">
        <ele>91.051</ele>
        <time>2017-04-17T20:22:29Z</time>
      </trkpt>
      <trkpt lat="49.76782" lon="0.3732">
        <ele>94.034</ele>
        <time>2017-04-17T20:22:09Z</time>
      </trkpt>
      <trkpt lat="49.76781" lon="0.37301">
        <ele>93.085</ele>
        <time>2017-04-17T20:21:49Z</time>
      </trkpt>
      <trkpt lat="49.76798" lon="0.37267">
        <ele>89.057</ele>
        <time>2017-04-17T20:21:29Z</time>
      </trkpt>
      <trkpt lat="49.76809" lon="0.37124">
        <ele>92.472</ele>
        <time>2020-12-10T15:12:58Z</time>
      </trkpt>
      <trkpt lat="49.76807" lon="0.37069">
        <ele>92.008</ele>
        <time>2020-12-10T15:12:38Z</time>
      </trkpt>
      <trkpt lat="49.76828" lon="0.37022">
        <ele>85.018</ele>
        <time>2017-04-17T20:21:09Z</time>
      </trkpt>
      <trkpt lat="49.76811" lon="0.36932">
        <ele>81.044</ele>
        <time>2017-04-17T20:20:49Z</time>
      </trkpt>
      <trkpt lat="49.76782" lon="0.36863">
        <ele>74.063</ele>
        <time>2017-04-17T20:20:29Z</time>
      </trkpt>
      <trkpt lat="49.76734" lon="0.36761">
        <ele>71.73</ele>
        <time>2020-12-10T15:11:18Z</time>
      </trkpt>
      <trkpt lat="49.7675" lon="0.36815">
        <ele>88.086</ele>
        <time>2020-12-10T15:10:58Z</time>
      </trkpt>
      <trkpt lat="49.76737" lon="0.36863">
        <ele>94.015</ele>
        <time>2017-04-17T20:19:49Z</time>
      </trkpt>
      <trkpt lat="49.7677" lon="0.3693">
        <ele>94.034</ele>
        <time>2017-04-17T20:19:29Z</time>
      </trkpt>
      <trkpt lat="49.76768" lon="0.36962">
        <ele>93.037</ele>
        <time>2017-04-17T20:19:09Z</time>
      </trkpt>
      <trkpt lat="49.76738" lon="0.37013">
        <ele>102.068</ele>
        <time>2017-04-17T20:18:49Z</time>
      </trkpt>
      <trkpt lat="49.76702" lon="0.37033">
        <ele>98.01</ele>
        <time>2017-04-17T20:18:29Z</time>
      </trkpt>
      <trkpt lat="49.76684" lon="0.37114">
        <ele>98.025</ele>
        <time>2017-04-17T20:18:09Z</time>
      </trkpt>
      <trkpt lat="49.76685" lon="0.37177">
        <ele>99.008</ele>
        <time>2017-04-17T20:17:49Z</time>
      </trkpt>
      <trkpt lat="49.76656" lon="0.37202">
        <ele>92.025</ele>
        <time>2017-04-17T20:17:29Z</time>
      </trkpt>
      <trkpt lat="49.76602" lon="0.3717">
        <ele>83.023</ele>
        <time>2017-04-17T20:17:09Z</time>
      </trkpt>
      <trkpt lat="49.76523" lon="0.37209">
        <ele>70.097</ele>
        <time>2017-04-17T20:16:49Z</time>
      </trkpt>
      <trkpt lat="49.76466" lon="0.37271">
        <ele>59.065</ele>
        <time>2017-04-17T20:16:29Z</time>
      </trkpt>
      <trkpt lat="49.76461" lon="0.37303">
        <ele>59.041</ele>
        <time>2017-04-17T20:16:09Z</time>
      </trkpt>
      <trkpt lat="49.7645" lon="0.37331">
        <ele>58.04</ele>
        <time>2017-04-17T20:15:49Z</time>
      </trkpt>
      <trkpt lat="49.76365" lon="0.3729">
        <ele>35.049</ele>
        <time>2017-04-17T20:15:29Z</time>
      </trkpt>
      <trkpt lat="49.76321" lon="0.37213">
        <ele>14.082</ele>
        <time>2017-04-17T20:15:09Z</time>
      </trkpt>
      <trkpt lat="49.76274" lon="0.37198">
        <ele>10.063</ele>
        <time>2017-04-17T20:14:49Z</time>
      </trkpt>
      <trkpt lat="49.76227" lon="0.37372">
        <ele>10.025</ele>
        <time>2017-04-17T20:14:29Z</time>
      </trkpt>
      <trkpt lat="49.76209" lon="0.37445">
        <ele>12.29</ele>
        <time>2020-12-10T15:04:58Z</time>
      </trkpt>
      <trkpt lat="49.75929" lon="0.37291">
        <ele>7.708</ele>
        <time>2020-12-10T15:04:38Z</time>
      </trkpt>
      <trkpt lat="49.76096" lon="0.36621">
        <ele>9.01</ele>
        <time>2017-04-17T20:10:49Z</time>
      </trkpt>
      <trkpt lat="49.76196" lon="0.36393">
        <ele>5.064</ele>
        <time>2017-04-17T20:10:29Z</time>
      </trkpt>
      <trkpt lat="49.76196" lon="0.36393">
        <ele>5.043</ele>
        <time>2017-04-17T20:10:09Z</time>
      </trkpt>
      <trkpt lat="49.75834" lon="0.36029">
        <ele>10.07</ele>
        <time>2017-04-17T20:09:49Z</time>
      </trkpt>
      <trkpt lat="49.75808" lon="0.35988">
        <ele>10.096</ele>
        <time>2017-04-17T20:09:29Z</time>
      </trkpt>
      <trkpt lat="49.7577" lon="0.35941">
        <ele>9.095</ele>
        <time>2017-04-17T20:09:09Z</time>
      </trkpt>
      <trkpt lat="49.75752" lon="0.35977">
        <ele>13.024</ele>
        <time>2017-04-17T20:08:49Z</time>
      </trkpt>
      <trkpt lat="49.75709" lon="0.35936">
        <ele>17.057</ele>
        <time>2017-04-17T20:08:29Z</time>
      </trkpt>
      <trkpt lat="49.7568" lon="0.35934">
        <ele>19.098</ele>
        <time>2017-04-17T20:08:09Z</time>
      </trkpt>
      <trkpt lat="49.75673" lon="0.359">
        <ele>14.03</ele>
        <time>2017-04-17T20:07:49Z</time>
      </trkpt>
      <trkpt lat="49.75636" lon="0.35819">
        <ele>25.045</ele>
        <time>2017-04-17T20:07:29Z</time>
      </trkpt>
      <trkpt lat="49.75617" lon="0.35795">
        <ele>28.008</ele>
        <time>2017-04-17T20:07:09Z</time>
      </trkpt>
      <trkpt lat="49.75582" lon="0.35782">
        <ele>48.021</ele>
        <time>2017-04-17T20:06:49Z</time>
      </trkpt>
      <trkpt lat="49.75572" lon="0.35756">
        <ele>43.065</ele>
        <time>2017-04-17T20:06:29Z</time>
      </trkpt>
      <trkpt lat="49.75563" lon="0.35756">
        <ele>46.093</ele>
        <time>2017-04-17T20:06:09Z</time>
      </trkpt>
      <trkpt lat="49.75559" lon="0.35764">
        <ele>48.01</ele>
        <time>2017-04-17T20:05:49Z</time>
      </trkpt>
      <trkpt lat="49.75572" lon="0.35794">
        <ele>50.026</ele>
        <time>2017-04-17T20:05:29Z</time>
      </trkpt>
      <trkpt lat="49.7556" lon="0.35803">
        <ele>51.025</ele>
        <time>2017-04-17T20:05:09Z</time>
      </trkpt>
      <trkpt lat="49.75541" lon="0.35784">
        <ele>53.064</ele>
        <time>2017-04-17T20:04:49Z</time>
      </trkpt>
      <trkpt lat="49.75538" lon="0.35764">
        <ele>53.027</ele>
        <time>2017-04-17T20:04:29Z</time>
      </trkpt>
      <trkpt lat="49.75531" lon="0.35738">
        <ele>51.028</ele>
        <time>2017-04-17T20:04:09Z</time>
      </trkpt>
      <trkpt lat="49.75515" lon="0.35736">
        <ele>55.03</ele>
        <time>2017-04-17T20:03:49Z</time>
      </trkpt>
      <trkpt lat="49.75506" lon="0.35753">
        <ele>60.095</ele>
        <time>2017-04-17T20:03:29Z</time>
      </trkpt>
      <trkpt lat="49.7556" lon="0.35841">
        <ele>55.008</ele>
        <time>2017-04-17T20:03:09Z</time>
      </trkpt>
      <trkpt lat="49.75573" lon="0.35877">
        <ele>56.027</ele>
        <time>2017-04-17T20:02:49Z</time>
      </trkpt>
      <trkpt lat="49.7556" lon="0.35907">
        <ele>57.007</ele>
        <time>2017-04-17T20:02:29Z</time>
      </trkpt>
      <trkpt lat="49.75516" lon="0.3589">
        <ele>62.099</ele>
        <time>2017-04-17T20:02:09Z</time>
      </trkpt>
      <trkpt lat="49.7549" lon="0.35903">
        <ele>70.077</ele>
        <time>2017-04-17T20:01:49Z</time>
      </trkpt>
      <trkpt lat="49.7547" lon="0.35937">
        <ele>71.023</ele>
        <time>2017-04-17T20:01:29Z</time>
      </trkpt>
      <trkpt lat="49.75355" lon="0.35742">
        <ele>77.082</ele>
        <time>2017-04-17T20:01:09Z</time>
      </trkpt>
      <trkpt lat="49.75197" lon="0.35394">
        <ele>81.061</ele>
        <time>2017-04-17T20:00:49Z</time>
      </trkpt>
      <trkpt lat="49.75045" lon="0.35096">
        <ele>76.044</ele>
        <time>2017-04-17T20:00:29Z</time>
      </trkpt>
      <trkpt lat="49.74975" lon="0.35006">
        <ele>79.055</ele>
        <time>2017-04-17T20:00:09Z</time>
      </trkpt>
      <trkpt lat="49.74953" lon="0.34935">
        <ele>73.087</ele>
        <time>2017-04-17T19:59:49Z</time>
      </trkpt>
      <trkpt lat="49.74942" lon="0.3491">
        <ele>64.062</ele>
        <time>2017-04-17T19:59:29Z</time>
      </trkpt>
      <trkpt lat="49.7487" lon="0.34912">
        <ele>63.008</ele>
        <time>2017-04-17T19:59:09Z</time>
      </trkpt>
      <trkpt lat="49.74827" lon="0.34869">
        <ele>61.014</ele>
        <time>2017-04-17T19:58:49Z</time>
      </trkpt>
      <trkpt lat="49.74754" lon="0.34815">
        <ele>55.068</ele>
        <time>2017-04-17T19:58:29Z</time>
      </trkpt>
      <trkpt lat="49.74677" lon="0.34716">
        <ele>56.065</ele>
        <time>2017-04-17T19:58:09Z</time>
      </trkpt>
      <trkpt lat="49.74651" lon="0.34592">
        <ele>69.047</ele>
        <time>2017-04-17T19:57:49Z</time>
      </trkpt>
      <trkpt lat="49.74616" lon="0.34566">
        <ele>75.043</ele>
        <time>2017-04-17T19:57:29Z</time>
      </trkpt>
      <trkpt lat="49.74566" lon="0.34435">
        <ele>83.012</ele>
        <time>2017-04-17T19:57:09Z</time>
      </trkpt>
      <trkpt lat="49.74447" lon="0.34101">
        <ele>91.081</ele>
        <time>2017-04-17T19:56:49Z</time>
      </trkpt>
      <trkpt lat="49.74277" lon="0.33725">
        <ele>96.064</ele>
        <time>2017-04-17T19:56:29Z</time>
      </trkpt>
      <trkpt lat="49.74254" lon="0.33628">
        <ele>95.035</ele>
        <time>2017-04-17T19:56:09Z</time>
      </trkpt>
      <trkpt lat="49.74235" lon="0.33504">
        <ele>95.087</ele>
        <time>2017-04-17T19:55:49Z</time>
      </trkpt>
      <trkpt lat="49.74207" lon="0.33375">
        <ele>95.022</ele>
        <time>2017-04-17T19:55:29Z</time>
      </trkpt>
      <trkpt lat="49.74189" lon="0.33339">
        <ele>96.008</ele>
        <time>2017-04-17T19:55:09Z</time>
      </trkpt>
      <trkpt lat="49.74153" lon="0.33313">
        <ele>96.014</ele>
        <time>2017-04-17T19:54:49Z</time>
      </trkpt>
      <trkpt lat="49.7417" lon="0.33268">
        <ele>95.068</ele>
        <time>2017-04-17T19:54:29Z</time>
      </trkpt>
      <trkpt lat="49.74148" lon="0.33156">
        <ele>93.065</ele>
        <time>2017-04-17T19:54:09Z</time>
      </trkpt>
      <trkpt lat="49.7408" lon="0.3288">
        <ele>87.056</ele>
        <time>2017-04-17T19:53:49Z</time>
      </trkpt>
      <trkpt lat="49.74041" lon="0.32779">
        <ele>84.082</ele>
        <time>2017-04-17T19:53:29Z</time>
      </trkpt>
      <trkpt lat="49.74023" lon="0.3271">
        <ele>82.051</ele>
        <time>2017-04-17T19:53:09Z</time>
      </trkpt>
      <trkpt lat="49.73976" lon="0.32588">
        <ele>80.08</ele>
        <time>2017-04-17T19:52:49Z</time>
      </trkpt>
      <trkpt lat="49.73891" lon="0.32435">
        <ele>82.083</ele>
        <time>2017-04-17T19:52:29Z</time>
      </trkpt>
      <trkpt lat="49.73945" lon="0.3227">
        <ele>78.094</ele>
        <time>2017-04-17T19:52:09Z</time>
      </trkpt>
      <trkpt lat="49.73955" lon="0.32152">
        <ele>80.096</ele>
        <time>2017-04-17T19:51:49Z</time>
      </trkpt>
      <trkpt lat="49.73959" lon="0.32111">
        <ele>80.031</ele>
        <time>2017-04-17T19:51:29Z</time>
      </trkpt>
      <trkpt lat="49.73923" lon="0.31974">
        <ele>80.008</ele>
        <time>2017-04-17T19:51:09Z</time>
      </trkpt>
      <trkpt lat="49.73906" lon="0.3183">
        <ele>76.011</ele>
        <time>2017-04-17T19:50:49Z</time>
      </trkpt>
      <trkpt lat="49.73901" lon="0.31661">
        <ele>68.001</ele>
        <time>2017-04-17T19:50:29Z</time>
      </trkpt>
      <trkpt lat="49.73886" lon="0.31571">
        <ele>58.051</ele>
        <time>2017-04-17T19:50:09Z</time>
      </trkpt>
      <trkpt lat="49.73884" lon="0.31481">
        <ele>48.055</ele>
        <time>2017-04-17T19:49:49Z</time>
      </trkpt>
      <trkpt lat="49.73922" lon="0.3135">
        <ele>41.021</ele>
        <time>2017-04-17T19:49:29Z</time>
      </trkpt>
      <trkpt lat="49.73861" lon="0.31395">
        <ele>32.03</ele>
        <time>2017-04-17T19:49:09Z</time>
      </trkpt>
      <trkpt lat="49.73857" lon="0.31388">
        <ele>29.929</ele>
        <time>2020-12-10T14:42:18Z</time>
      </trkpt>
      <trkpt lat="49.73863" lon="0.31364">
        <ele>28.142</ele>
        <time>2020-12-10T14:41:58Z</time>
      </trkpt>
      <trkpt lat="49.73865" lon="0.31328">
        <ele>23.083</ele>
        <time>2017-04-17T19:48:49Z</time>
      </trkpt>
      <trkpt lat="49.73847" lon="0.31305">
        <ele>20.795</ele>
        <time>2020-12-10T14:41:18Z</time>
      </trkpt>
      <trkpt lat="49.73873" lon="0.31249">
        <ele>20.09</ele>
        <time>2017-04-17T19:48:09Z</time>
      </trkpt>
      <trkpt lat="49.73956" lon="0.31105">
        <ele>11.008</ele>
        <time>2017-04-17T19:47:49Z</time>
      </trkpt>
      <trkpt lat="49.73982" lon="0.31059">
        <ele>5.514</ele>
        <time>2020-12-10T14:40:18Z</time>
      </trkpt>
      <trkpt lat="49.7397" lon="0.31002">
        <ele>7.422</ele>
        <time>2020-12-10T14:39:58Z</time>
      </trkpt>
      <trkpt lat="49.7396" lon="0.30915">
        <ele>8.742</ele>
        <time>2020-12-10T14:39:38Z</time>
      </trkpt>
      <trkpt lat="49.73967" lon="0.30858">
        <ele>8.185</ele>
        <time>2020-12-10T14:39:18Z</time>
      </trkpt>
      <trkpt lat="49.73943" lon="0.30851">
        <ele>13.631</ele>
        <time>2020-12-10T14:38:58Z</time>
      </trkpt>
      <trkpt lat="49.73943" lon="0.30861">
        <ele>13.38</ele>
        <time>2020-12-10T14:38:38Z</time>
      </trkpt>
      <trkpt lat="49.73933" lon="0.3088">
        <ele>14.989</ele>
        <time>2020-12-10T14:38:18Z</time>
      </trkpt>
      <trkpt lat="49.73923" lon="0.30864">
        <ele>17.612</ele>
        <time>2020-12-10T14:37:58Z</time>
      </trkpt>
      <trkpt lat="49.73912" lon="0.30875">
        <ele>19.383</ele>
        <time>2020-12-10T14:37:38Z</time>
      </trkpt>
      <trkpt lat="49.73912" lon="0.30824">
        <ele>25.095</ele>
        <time>2017-04-17T19:46:09Z</time>
      </trkpt>
      <trkpt lat="49.73849" lon="0.30588">
        <ele>65.03</ele>
        <time>2017-04-17T19:45:49Z</time>
      </trkpt>
      <trkpt lat="49.73837" lon="0.30511">
        <ele>72.008</ele>
        <time>2017-04-17T19:45:29Z</time>
      </trkpt>
      <trkpt lat="49.73739" lon="0.30058">
        <ele>77.022</ele>
        <time>2017-04-17T19:45:09Z</time>
      </trkpt>
      <trkpt lat="49.73779" lon="0.30002">
        <ele>73.002</ele>
        <time>2017-04-17T19:44:49Z</time>
      </trkpt>
      <trkpt lat="49.73818" lon="0.29927">
        <ele>72.049</ele>
        <time>2017-04-17T19:44:29Z</time>
      </trkpt>
      <trkpt lat="49.73722" lon="0.29414">
        <ele>72.068</ele>
        <time>2017-04-17T19:44:09Z</time>
      </trkpt>
      <trkpt lat="49.73691" lon="0.29423">
        <ele>76.074</ele>
        <time>2017-04-17T19:43:49Z</time>
      </trkpt>
      <trkpt lat="49.73641" lon="0.29401">
        <ele>72.073</ele>
        <time>2017-04-17T19:43:29Z</time>
      </trkpt>
      <trkpt lat="49.73554" lon="0.29453">
        <ele>79.062</ele>
        <time>2017-04-17T19:43:09Z</time>
      </trkpt>
      <trkpt lat="49.73522" lon="0.29464">
        <ele>80.095</ele>
        <time>2017-04-17T19:42:49Z</time>
      </trkpt>
      <trkpt lat="49.73521" lon="0.29391">
        <ele>73.056</ele>
        <time>2017-04-17T19:42:29Z</time>
      </trkpt>
      <trkpt lat="49.73468" lon="0.29335">
        <ele>74.038</ele>
        <time>2017-04-17T19:42:09Z</time>
      </trkpt>
      <trkpt lat="49.73357" lon="0.29283">
        <ele>59.073</ele>
        <time>2017-04-17T19:41:49Z</time>
      </trkpt>
      <trkpt lat="49.73241" lon="0.29249">
        <ele>41.008</ele>
        <time>2017-04-17T19:41:29Z</time>
      </trkpt>
      <trkpt lat="49.73234" lon="0.2923">
        <ele>39.021</ele>
        <time>2017-04-17T19:41:09Z</time>
      </trkpt>
      <trkpt lat="49.73309" lon="0.29185">
        <ele>38.056</ele>
        <time>2017-04-17T19:40:49Z</time>
      </trkpt>
      <trkpt lat="49.73332" lon="0.29157">
        <ele>36.074</ele>
        <time>2017-04-17T19:40:29Z</time>
      </trkpt>
      <trkpt lat="49.73311" lon="0.29094">
        <ele>40.07</ele>
        <time>2017-04-17T19:40:09Z</time>
      </trkpt>
      <trkpt lat="49.73311" lon="0.28863">
        <ele>63.036</ele>
        <time>2017-04-17T19:39:49Z</time>
      </trkpt>
      <trkpt lat="49.73292" lon="0.28831">
        <ele>66.085</ele>
        <time>2017-04-17T19:39:29Z</time>
      </trkpt>
      <trkpt lat="49.73266" lon="0.287">
        <ele>70.084</ele>
        <time>2017-04-17T19:39:09Z</time>
      </trkpt>
      <trkpt lat="49.73228" lon="0.28588">
        <ele>72.047</ele>
        <time>2017-04-17T19:38:49Z</time>
      </trkpt>
      <trkpt lat="49.73196" lon="0.28455">
        <ele>75.058</ele>
        <time>2017-04-17T19:38:29Z</time>
      </trkpt>
      <trkpt lat="49.73157" lon="0.28262">
        <ele>78.06</ele>
        <time>2017-04-17T19:38:09Z</time>
      </trkpt>
      <trkpt lat="49.73094" lon="0.28049">
        <ele>82.095</ele>
        <time>2017-04-17T19:37:49Z</time>
      </trkpt>
      <trkpt lat="49.73022" lon="0.27421">
        <ele>84.008</ele>
        <time>2017-04-17T19:37:29Z</time>
      </trkpt>
      <trkpt lat="49.7292" lon="0.27232">
        <ele>78.02</ele>
        <time>2017-04-17T19:37:09Z</time>
      </trkpt>
      <trkpt lat="49.72984" lon="0.2712">
        <ele>76.073</ele>
        <time>2017-04-17T19:36:49Z</time>
      </trkpt>
      <trkpt lat="49.73076" lon="0.27035">
        <ele>58.092</ele>
        <time>2017-04-17T19:36:29Z</time>
      </trkpt>
      <trkpt lat="49.73044" lon="0.26964">
        <ele>48.067</ele>
        <time>2017-04-17T19:36:09Z</time>
      </trkpt>
      <trkpt lat="49.72954" lon="0.26824">
        <ele>21.053</ele>
        <time>2017-04-17T19:35:49Z</time>
      </trkpt>
      <trkpt lat="49.7293" lon="0.26773">
        <ele>21.092</ele>
        <time>2017-04-17T19:35:29Z</time>
      </trkpt>
      <trkpt lat="49.72777" lon="0.26874">
        <ele>36.091</ele>
        <time>2017-04-17T19:35:09Z</time>
      </trkpt>
      <trkpt lat="49.72723" lon="0.26837">
        <ele>39.084</ele>
        <time>2017-04-17T19:34:49Z</time>
      </trkpt>
      <trkpt lat="49.72662" lon="0.26764">
        <ele>50.035</ele>
        <time>2017-04-17T19:34:29Z</time>
      </trkpt>
      <trkpt lat="49.72607" lon="0.26708">
        <ele>56.027</ele>
        <time>2017-04-17T19:34:09Z</time>
      </trkpt>
      <trkpt lat="49.72492" lon="0.26646">
        <ele>67.062</ele>
        <time>2017-04-17T19:33:49Z</time>
      </trkpt>
      <trkpt lat="49.7235" lon="0.26528">
        <ele>73.008</ele>
        <time>2017-04-17T19:33:29Z</time>
      </trkpt>
      <trkpt lat="49.72238" lon="0.26419">
        <ele>79.016</ele>
        <time>2017-04-17T19:33:09Z</time>
      </trkpt>
      <trkpt lat="49.72171" lon="0.26335">
        <ele>81.006</ele>
        <time>2017-04-17T19:32:49Z</time>
      </trkpt>
      <trkpt lat="49.72066" lon="0.26146">
        <ele>87.064</ele>
        <time>2017-04-17T19:32:29Z</time>
      </trkpt>
      <trkpt lat="49.72013" lon="0.26063">
        <ele>89.037</ele>
        <time>2017-04-17T19:32:09Z</time>
      </trkpt>
      <trkpt lat="49.71977" lon="0.26028">
        <ele>90.093</ele>
        <time>2017-04-17T19:31:49Z</time>
      </trkpt>
      <trkpt lat="49.71838" lon="0.26009">
        <ele>94.042</ele>
        <time>2017-04-17T19:31:29Z</time>
      </trkpt>
      <trkpt lat="49.71827" lon="0.25558">
        <ele>96.061</ele>
        <time>2017-04-17T19:31:09Z</time>
      </trkpt>
      <trkpt lat="49.7182" lon="0.25509">
        <ele>96.044</ele>
        <time>2017-04-17T19:30:49Z</time>
      </trkpt>
      <trkpt lat="49.71804" lon="0.25468">
        <ele>96.055</ele>
        <time>2017-04-17T19:30:29Z</time>
      </trkpt>
      <trkpt lat="49.71813" lon="0.25271">
        <ele>95.017</ele>
        <time>2017-04-17T19:30:09Z</time>
      </trkpt>
      <trkpt lat="49.71809" lon="0.25226">
        <ele>96.092</ele>
        <time>2017-04-17T19:29:49Z</time>
      </trkpt>
      <trkpt lat="49.72046" lon="0.25324">
        <ele>86.008</ele>
        <time>2017-04-17T19:29:29Z</time>
      </trkpt>
      <trkpt lat="49.72102" lon="0.25354">
        <ele>84.013</ele>
        <time>2017-04-17T19:29:09Z</time>
      </trkpt>
      <trkpt lat="49.72196" lon="0.25241">
        <ele>76.021</ele>
        <time>2017-04-17T19:28:49Z</time>
      </trkpt>
      <trkpt lat="49.72241" lon="0.25213">
        <ele>75.061</ele>
        <time>2017-04-17T19:28:29Z</time>
      </trkpt>
      <trkpt lat="49.72315" lon="0.252">
        <ele>62.045</ele>
        <time>2017-04-17T19:28:09Z</time>
      </trkpt>
      <trkpt lat="49.72313" lon="0.25151">
        <ele>56.071</ele>
        <time>2017-04-17T19:27:49Z</time>
      </trkpt>
      <trkpt lat="49.72292" lon="0.25097">
        <ele>59.04</ele>
        <time>2017-04-17T19:27:29Z</time>
      </trkpt>
      <trkpt lat="49.72288" lon="0.24985">
        <ele>56.069</ele>
        <time>2017-04-17T19:27:09Z</time>
      </trkpt>
      <trkpt lat="49.723" lon="0.24923">
        <ele>49.082</ele>
        <time>2017-04-17T19:26:49Z</time>
      </trkpt>
      <trkpt lat="49.72268" lon="0.24869">
        <ele>55.063</ele>
        <time>2017-04-17T19:26:29Z</time>
      </trkpt>
      <trkpt lat="49.72248" lon="0.24801">
        <ele>73.025</ele>
        <time>2017-04-17T19:26:09Z</time>
      </trkpt>
      <trkpt lat="49.7221" lon="0.24745">
        <ele>65.03</ele>
        <time>2017-04-17T19:25:49Z</time>
      </trkpt>
      <trkpt lat="49.72193" lon="0.24608">
        <ele>57.008</ele>
        <time>2017-04-17T19:25:29Z</time>
      </trkpt>
      <trkpt lat="49.72181" lon="0.2458">
        <ele>61.009</ele>
        <time>2017-04-17T19:25:09Z</time>
      </trkpt>
      <trkpt lat="49.72164" lon="0.24524">
        <ele>74.081</ele>
        <time>2017-04-17T19:24:49Z</time>
      </trkpt>
      <trkpt lat="49.72156" lon="0.24475">
        <ele>69.041</ele>
        <time>2017-04-17T19:24:29Z</time>
      </trkpt>
      <trkpt lat="49.72137" lon="0.24412">
        <ele>56.072</ele>
        <time>2017-04-17T19:24:09Z</time>
      </trkpt>
      <trkpt lat="49.72103" lon="0.24359">
        <ele>61.098</ele>
        <time>2017-04-17T19:23:49Z</time>
      </trkpt>
      <trkpt lat="49.72099" lon="0.2432">
        <ele>60.027</ele>
        <time>2017-04-17T19:23:29Z</time>
      </trkpt>
      <trkpt lat="49.72069" lon="0.24286">
        <ele>69.066</ele>
        <time>2017-04-17T19:23:09Z</time>
      </trkpt>
      <trkpt lat="49.72023" lon="0.24118">
        <ele>48.029</ele>
        <time>2017-04-17T19:22:49Z</time>
      </trkpt>
      <trkpt lat="49.71987" lon="0.24063">
        <ele>70.03</ele>
        <time>2017-04-17T19:22:29Z</time>
      </trkpt>
      <trkpt lat="49.71966" lon="0.24009">
        <ele>69.012</ele>
        <time>2017-04-17T19:22:09Z</time>
      </trkpt>
      <trkpt lat="49.71934" lon="0.23949">
        <ele>70.027</ele>
        <time>2017-04-17T19:21:49Z</time>
      </trkpt>
      <trkpt lat="49.71938" lon="0.2391">
        <ele>64.008</ele>
        <time>2017-04-17T19:21:29Z</time>
      </trkpt>
      <trkpt lat="49.71922" lon="0.23865">
        <ele>62.019</ele>
        <time>2017-04-17T19:21:09Z</time>
      </trkpt>
      <trkpt lat="49.7189" lon="0.23837">
        <ele>83.009</ele>
        <time>2017-04-17T19:20:49Z</time>
      </trkpt>
      <trkpt lat="49.71849" lon="0.23528">
        <ele>61.019</ele>
        <time>2017-04-17T19:20:29Z</time>
      </trkpt>
      <trkpt lat="49.71833" lon="0.23479">
        <ele>85.035</ele>
        <time>2017-04-17T19:20:09Z</time>
      </trkpt>
      <trkpt lat="49.71795" lon="0.23161">
        <ele>74.051</ele>
        <time>2017-04-17T19:19:49Z</time>
      </trkpt>
      <trkpt lat="49.71799" lon="0.23104">
        <ele>69.06</ele>
        <time>2017-04-17T19:19:29Z</time>
      </trkpt>
      <trkpt lat="49.71737" lon="0.22859">
        <ele>86.069</ele>
        <time>2017-04-17T19:19:09Z</time>
      </trkpt>
      <trkpt lat="49.7174" lon="0.22827">
        <ele>83.072</ele>
        <time>2017-04-17T19:18:49Z</time>
      </trkpt>
      <trkpt lat="49.71727" lon="0.22737">
        <ele>79.023</ele>
        <time>2017-04-17T19:18:29Z</time>
      </trkpt>
      <trkpt lat="49.71723" lon="0.22634">
        <ele>79.085</ele>
        <time>2020-12-10T14:09:18Z</time>
      </trkpt>
      <trkpt lat="49.71736" lon="0.22552">
        <ele>80.26</ele>
        <time>2020-12-10T14:08:58Z</time>
      </trkpt>
      <trkpt lat="49.71736" lon="0.22293">
        <ele>72.208</ele>
        <time>2020-12-10T14:08:38Z</time>
      </trkpt>
      <trkpt lat="49.71692" lon="0.22145">
        <ele>73.711</ele>
        <time>2020-12-10T14:08:18Z</time>
      </trkpt>
      <trkpt lat="49.71665" lon="0.22011">
        <ele>78.547</ele>
        <time>2020-12-10T14:07:58Z</time>
      </trkpt>
      <trkpt lat="49.71625" lon="0.21881">
        <ele>71.245</ele>
        <time>2020-12-10T14:07:38Z</time>
      </trkpt>
      <trkpt lat="49.71608" lon="0.21854">
        <ele>75.937</ele>
        <time>2020-12-10T14:07:18Z</time>
      </trkpt>
      <trkpt lat="49.71592" lon="0.2176">
        <ele>76.013</ele>
        <time>2020-12-10T14:06:58Z</time>
      </trkpt>
      <trkpt lat="49.71496" lon="0.21544">
        <ele>78.452</ele>
        <time>2020-12-10T14:06:38Z</time>
      </trkpt>
      <trkpt lat="49.71488" lon="0.21467">
        <ele>70.691</ele>
        <time>2020-12-10T14:06:18Z</time>
      </trkpt>
      <trkpt lat="49.71461" lon="0.21289">
        <ele>55.764</ele>
        <time>2020-12-10T14:05:58Z</time>
      </trkpt>
      <trkpt lat="49.71441" lon="0.21205">
        <ele>63.235</ele>
        <time>2020-12-10T14:05:38Z</time>
      </trkpt>
      <trkpt lat="49.71396" lon="0.21153">
        <ele>64.827</ele>
        <time>2020-12-10T14:05:18Z</time>
      </trkpt>
      <trkpt lat="49.71355" lon="0.2105">
        <ele>64.762</ele>
        <time>2020-12-10T14:04:58Z</time>
      </trkpt>
      <trkpt lat="49.71354" lon="0.20969">
        <ele>58.908</ele>
        <time>2020-12-10T14:04:38Z</time>
      </trkpt>
      <trkpt lat="49.71343" lon="0.20929">
        <ele>62.924</ele>
        <time>2020-12-10T14:04:18Z</time>
      </trkpt>
      <trkpt lat="49.71347" lon="0.2088">
        <ele>59.104</ele>
        <time>2020-12-10T14:03:58Z</time>
      </trkpt>
      <trkpt lat="49.71329" lon="0.20779">
        <ele>63.869</ele>
        <time>2020-12-10T14:03:38Z</time>
      </trkpt>
      <trkpt lat="49.71312" lon="0.20738">
        <ele>61.959</ele>
        <time>2020-12-10T14:03:18Z</time>
      </trkpt>
      <trkpt lat="49.71289" lon="0.20645">
        <ele>51.235</ele>
        <time>2020-12-10T14:02:58Z</time>
      </trkpt>
      <trkpt lat="49.71279" lon="0.20626">
        <ele>49.174</ele>
        <time>2020-12-10T14:02:38Z</time>
      </trkpt>
      <trkpt lat="49.71228" lon="0.20605">
        <ele>56.363</ele>
        <time>2020-12-10T14:02:18Z</time>
      </trkpt>
      <trkpt lat="49.71179" lon="0.20578">
        <ele>59.996</ele>
        <time>2020-12-10T14:01:58Z</time>
      </trkpt>
      <trkpt lat="49.71128" lon="0.20527">
        <ele>44.677</ele>
        <time>2020-12-10T14:01:38Z</time>
      </trkpt>
      <trkpt lat="49.71115" lon="0.20505">
        <ele>40.689</ele>
        <time>2020-12-10T14:01:18Z</time>
      </trkpt>
      <trkpt lat="49.71093" lon="0.20501">
        <ele>44.884</ele>
        <time>2020-12-10T14:00:58Z</time>
      </trkpt>
      <trkpt lat="49.71094" lon="0.20478">
        <ele>36.408</ele>
        <time>2020-12-10T14:00:38Z</time>
      </trkpt>
      <trkpt lat="49.71075" lon="0.20462">
        <ele>30.017</ele>
        <time>2017-04-17T19:10:49Z</time>
      </trkpt>
      <trkpt lat="49.71064" lon="0.20436">
        <ele>24.043</ele>
        <time>2017-04-17T19:10:29Z</time>
      </trkpt>
      <trkpt lat="49.71018" lon="0.2043">
        <ele>23.082</ele>
        <time>2017-04-17T19:10:09Z</time>
      </trkpt>
      <trkpt lat="49.70999" lon="0.20406">
        <ele>15.062</ele>
        <time>2017-04-17T19:09:49Z</time>
      </trkpt>
      <trkpt lat="49.71006" lon="0.20376">
        <ele>12.088</ele>
        <time>2017-04-17T19:09:29Z</time>
      </trkpt>
      <trkpt lat="49.70975" lon="0.20359">
        <ele>10.027</ele>
        <time>2017-04-17T19:09:09Z</time>
      </trkpt>
      <trkpt lat="49.70889" lon="0.20278">
        <ele>7.066</ele>
        <time>2017-04-17T19:08:49Z</time>
      </trkpt>
      <trkpt lat="49.70889" lon="0.20278">
        <ele>7.066</ele>
        <time>2017-04-17T19:08:49Z</time>
      </trkpt>
      <trkpt lat="49.70629" lon="0.19933">
        <ele>34.2</ele>
      </trkpt>
    </trkseg>
  </trk>
</gpx>